Wetterdaten: Sonntag, 30.04.2023
Datum Zeit Temp. Aussen Temp. o. S. Temp +5cm Feuchte Auss Luftdruck Regen Sonnenschein Regendauer Solar Windben Empfang
30.04.2023 00:00 11,0 C 10,0 C 6,7 C 83 % 1022,3 hPa 0,0 l/m 0 min 0 min 0 W/m 9,7 km/h (2 Bft) 93,62 %
30.04.2023 00:02 11,0 C 10,0 C 6,7 C 83 % 1022,4 hPa 0,0 l/m 0 min 0 min 0 W/m 6,4 km/h (2 Bft) 94,74 %
30.04.2023 00:04 10,9 C 10,0 C 6,7 C 83 % 1022,4 hPa 0,0 l/m 0 min 0 min 0 W/m 0,0 km/h (0 Bft) 95,83 %
30.04.2023 00:10 10,9 C 9,4 C 6,1 C 83 % 1022,5 hPa 0,0 l/m 0 min 0 min 0 W/m 12,9 km/h (3 Bft) 95,74 %
30.04.2023 00:12 10,8 C 9,4 C 6,1 C 83 % 1022,5 hPa 0,0 l/m 0 min 0 min 0 W/m 3,2 km/h (1 Bft) 91,49 %
30.04.2023 00:14 10,8 C 9,4 C 6,1 C 83 % 1022,5 hPa 0,0 l/m 0 min 0 min 0 W/m 6,4 km/h (2 Bft) 95,74 %
30.04.2023 00:16 10,8 C 9,4 C 6,1 C 83 % 1022,5 hPa 0,0 l/m 0 min 0 min 0 W/m 3,2 km/h (1 Bft) 95,65 %
30.04.2023 00:18 10,7 C 9,4 C 6,1 C 83 % 1022,5 hPa 0,0 l/m 0 min 0 min 0 W/m 6,4 km/h (2 Bft) 93,62 %
30.04.2023 00:20 10,7 C 9,4 C 6,1 C 83 % 1022,5 hPa 0,0 l/m 0 min 0 min 0 W/m 6,4 km/h (2 Bft) 93,62 %
30.04.2023 00:22 10,7 C 9,4 C 6,1 C 83 % 1022,5 hPa 0,0 l/m 0 min 0 min 0 W/m 3,2 km/h (1 Bft) 95,74 %
30.04.2023 00:24 10,7 C 9,4 C 6,1 C 83 % 1022,6 hPa 0,0 l/m 0 min 0 min 0 W/m 3,2 km/h (1 Bft) 94,34 %
30.04.2023 00:26 10,6 C 9,4 C 6,1 C 82 % 1022,6 hPa 0,0 l/m 0 min 0 min 0 W/m 3,2 km/h (1 Bft) 93,62 %
30.04.2023 00:28 10,6 C 9,4 C 5,6 C 83 % 1022,6 hPa 0,0 l/m 0 min 0 min 0 W/m 0,0 km/h (0 Bft) 93,62 %
30.04.2023 00:30 10,6 C 9,4 C 5,6 C 82 % 1022,6 hPa 0,0 l/m 0 min 0 min 0 W/m 0,0 km/h (0 Bft) 94,74 %
30.04.2023 00:32 10,6 C 8,9 C 5,6 C 82 % 1022,6 hPa 0,0 l/m 0 min 0 min 0 W/m 3,2 km/h (1 Bft) 95,74 %
30.04.2023 00:34 10,5 C 8,9 C 5,6 C 82 % 1022,6 hPa 0,0 l/m 0 min 0 min 0 W/m 3,2 km/h (1 Bft) 95,74 %
30.04.2023 00:36 10,4 C 8,9 C 5,6 C 82 % 1022,6 hPa 0,0 l/m 0 min 0 min 0 W/m 0,0 km/h (0 Bft) 93,62 %
30.04.2023 00:38 10,4 C 8,9 C 5,6 C 83 % 1022,6 hPa 0,0 l/m 0 min 0 min 0 W/m 0,0 km/h (0 Bft) 93,62 %
30.04.2023 00:40 10,4 C 8,9 C 5,6 C 83 % 1022,6 hPa 0,0 l/m 0 min 0 min 0 W/m 0,0 km/h (0 Bft) 97,87 %
30.04.2023 00:42 10,4 C 8,9 C 5,6 C 83 % 1022,7 hPa 0,0 l/m 0 min 0 min 0 W/m 0,0 km/h (0 Bft) 95,65 %
30.04.2023 00:44 10,3 C 8,3 C 5,0 C 83 % 1022,7 hPa 0,0 l/m 0 min 0 min 0 W/m 0,0 km/h (0 Bft) 95,74 %
30.04.2023 00:46 10,3 C 8,9 C 5,0 C 83 % 1022,7 hPa 0,0 l/m 0 min 0 min 0 W/m 0,0 km/h (0 Bft) 97,87 %
30.04.2023 00:48 10,2 C 8,9 C 5,0 C 83 % 1022,7 hPa 0,0 l/m 0 min 0 min 0 W/m 6,4 km/h (2 Bft) 93,62 %
30.04.2023 00:50 10,2 C 8,9 C 5,0 C 83 % 1022,7 hPa 0,0 l/m 0 min 0 min 0 W/m 6,4 km/h (2 Bft) 95,74 %
30.04.2023 00:52 10,1 C 8,9 C 5,0 C 83 % 1022,7 hPa 0,0 l/m 0 min 0 min 0 W/m 6,4 km/h (2 Bft) 95,74 %
30.04.2023 00:54 10,1 C 8,9 C 5,6 C 83 % 1022,7 hPa 0,0 l/m 0 min 0 min 0 W/m 6,4 km/h (2 Bft) 93,88 %
30.04.2023 00:56 10,0 C 8,9 C 5,6 C 83 % 1022,8 hPa 0,0 l/m 0 min 0 min 0 W/m 3,2 km/h (1 Bft) 95,74 %
30.04.2023 00:58 10,0 C 8,9 C 5,0 C 83 % 1022,8 hPa 0,0 l/m 0 min 0 min 0 W/m 3,2 km/h (1 Bft) 74,47 %
30.04.2023 01:00 9,9 C 8,3 C 5,0 C 83 % 1022,8 hPa 0,0 l/m 0 min 0 min 0 W/m 3,2 km/h (1 Bft) 70,73 %
30.04.2023 01:02 9,9 C 8,3 C 5,0 C 83 % 1022,8 hPa 0,0 l/m 0 min 0 min 0 W/m 0,0 km/h (0 Bft) 98,04 %
30.04.2023 01:04 9,9 C 8,3 C 5,0 C 83 % 1022,8 hPa 0,0 l/m 0 min 0 min 0 W/m 0,0 km/h (0 Bft) 100,00 %
30.04.2023 01:06 9,8 C 8,3 C 5,0 C 83 % 1022,8 hPa 0,0 l/m 0 min 0 min 0 W/m 6,4 km/h (2 Bft) 94,92 %
30.04.2023 01:08 9,8 C 8,3 C 5,0 C 83 % 1022,8 hPa 0,0 l/m 0 min 0 min 0 W/m 6,4 km/h (2 Bft) 97,87 %
30.04.2023 01:10 9,8 C 8,3 C 5,0 C 83 % 1022,9 hPa 0,0 l/m 0 min 0 min 0 W/m 3,2 km/h (1 Bft) 97,87 %
30.04.2023 01:12 9,7 C 8,3 C 5,0 C 83 % 1022,9 hPa 0,0 l/m 0 min 0 min 0 W/m 6,4 km/h (2 Bft) 95,12 %
30.04.2023 01:14 9,7 C 8,9 C 5,0 C 83 % 1023,0 hPa 0,0 l/m 0 min 0 min 0 W/m 6,4 km/h (2 Bft) 95,35 %
30.04.2023 01:16 9,7 C 8,9 C 5,6 C 84 % 1023,0 hPa 0,0 l/m 0 min 0 min 0 W/m 9,7 km/h (2 Bft) 100,00 %
30.04.2023 01:18 9,7 C 8,9 C 5,6 C 84 % 1023,0 hPa 0,0 l/m 0 min 0 min 0 W/m 6,4 km/h (2 Bft) 100,00 %
30.04.2023 01:20 9,7 C 8,9 C 5,6 C 84 % 1023,1 hPa 0,0 l/m 0 min 0 min 0 W/m 6,4 km/h (2 Bft) 100,00 %
30.04.2023 01:22 9,6 C 8,3 C 5,6 C 84 % 1023,0 hPa 0,0 l/m 0 min 0 min 0 W/m 3,2 km/h (1 Bft) 100,00 %
30.04.2023 01:24 9,6 C 8,3 C 5,0 C 84 % 1023,1 hPa 0,0 l/m 0 min 0 min 0 W/m 3,2 km/h (1 Bft) 100,00 %
30.04.2023 01:26 9,6 C 8,3 C 5,0 C 84 % 1023,1 hPa 0,0 l/m 0 min 0 min 0 W/m 0,0 km/h (0 Bft) 100,00 %
30.04.2023 01:28 9,6 C 8,3 C 5,0 C 84 % 1023,0 hPa 0,0 l/m 0 min 0 min 0 W/m 6,4 km/h (2 Bft) 100,00 %
30.04.2023 01:30 9,6 C 8,3 C 5,0 C 84 % 1023,1 hPa 0,0 l/m 0 min 0 min 0 W/m 6,4 km/h (2 Bft) 100,00 %
30.04.2023 01:32 9,5 C 8,3 C 5,0 C 84 % 1023,1 hPa 0,0 l/m 0 min 0 min 0 W/m 3,2 km/h (1 Bft) 100,00 %
30.04.2023 01:34 9,5 C 8,3 C 5,0 C 84 % 1023,1 hPa 0,0 l/m 0 min 0 min 0 W/m 9,7 km/h (2 Bft) 97,87 %
30.04.2023 01:36 9,4 C 8,3 C 5,0 C 84 % 1023,1 hPa 0,0 l/m 0 min 0 min 0 W/m 6,4 km/h (2 Bft) 100,00 %
30.04.2023 01:38 9,4 C 8,3 C 5,0 C 84 % 1023,1 hPa 0,0 l/m 0 min 0 min 0 W/m 6,4 km/h (2 Bft) 97,83 %
30.04.2023 01:40 9,4 C 7,8 C 5,0 C 85 % 1023,1 hPa 0,0 l/m 0 min 0 min 0 W/m 0,0 km/h (0 Bft) 97,87 %
30.04.2023 01:42 9,3 C 7,8 C 5,0 C 85 % 1023,1 hPa 0,0 l/m 0 min 0 min 0 W/m 9,7 km/h (2 Bft) 100,00 %
30.04.2023 01:44 9,3 C 7,8 C 4,4 C 85 % 1023,1 hPa 0,0 l/m 0 min 0 min 0 W/m 3,2 km/h (1 Bft) 97,87 %
30.04.2023 01:46 9,3 C 7,8 C 4,4 C 85 % 1023,1 hPa 0,0 l/m 0 min 0 min 0 W/m 3,2 km/h (1 Bft) 100,00 %
30.04.2023 01:48 9,2 C 7,8 C 4,4 C 85 % 1023,0 hPa 0,0 l/m 0 min 0 min 0 W/m 6,4 km/h (2 Bft) 100,00 %
30.04.2023 01:50 9,2 C 7,8 C 4,4 C 85 % 1023,1 hPa 0,0 l/m 0 min 0 min 0 W/m 6,4 km/h (2 Bft) 100,00 %
30.04.2023 01:52 9,2 C 7,8 C 4,4 C 85 % 1023,1 hPa 0,0 l/m 0 min 0 min 0 W/m 3,2 km/h (1 Bft) 97,87 %
30.04.2023 01:54 9,1 C 7,8 C 4,4 C 86 % 1023,1 hPa 0,0 l/m 0 min 0 min 0 W/m 3,2 km/h (1 Bft) 100,00 %
30.04.2023 01:56 9,1 C 7,8 C 4,4 C 86 % 1023,1 hPa 0,0 l/m 0 min 0 min 0 W/m 0,0 km/h (0 Bft) 100,00 %
30.04.2023 01:58 9,1 C 7,8 C 4,4 C 86 % 1023,1 hPa 0,0 l/m 0 min 0 min 0 W/m 3,2 km/h (1 Bft) 100,00 %
30.04.2023 02:00 9,1 C 7,8 C 4,4 C 86 % 1023,1 hPa 0,0 l/m 0 min 0 min 0 W/m 3,2 km/h (1 Bft) 100,00 %
30.04.2023 02:02 9,0 C 7,8 C 4,4 C 86 % 1023,1 hPa 0,0 l/m 0 min 0 min 0 W/m 6,4 km/h (2 Bft) 100,00 %
30.04.2023 02:04 9,0 C 7,8 C 4,4 C 86 % 1023,2 hPa 0,0 l/m 0 min 0 min 0 W/m 3,2 km/h (1 Bft) 100,00 %
30.04.2023 02:06 8,9 C 7,8 C 4,4 C 86 % 1023,1 hPa 0,0 l/m 0 min 0 min 0 W/m 0,0 km/h (0 Bft) 100,00 %
30.04.2023 02:08 8,9 C 7,8 C 4,4 C 86 % 1023,2 hPa 0,0 l/m 0 min 0 min 0 W/m 6,4 km/h (2 Bft) 100,00 %
30.04.2023 02:10 8,9 C 7,8 C 4,4 C 86 % 1023,2 hPa 0,0 l/m 0 min 0 min 0 W/m 6,4 km/h (2 Bft) 100,00 %
30.04.2023 02:12 8,9 C 7,2 C 4,4 C 87 % 1023,2 hPa 0,0 l/m 0 min 0 min 0 W/m 3,2 km/h (1 Bft) 100,00 %
30.04.2023 02:14 8,8 C 7,2 C 4,4 C 87 % 1023,2 hPa 0,0 l/m 0 min 0 min 0 W/m 0,0 km/h (0 Bft) 100,00 %
30.04.2023 02:16 8,8 C 7,2 C 4,4 C 87 % 1023,2 hPa 0,0 l/m 0 min 0 min 0 W/m 0,0 km/h (0 Bft) 100,00 %
30.04.2023 02:18 8,8 C 7,2 C 4,4 C 87 % 1023,2 hPa 0,0 l/m 0 min 0 min 0 W/m 3,2 km/h (1 Bft) 95,74 %
30.04.2023 02:20 8,8 C 7,2 C 3,9 C 87 % 1023,1 hPa 0,0 l/m 0 min 0 min 0 W/m 3,2 km/h (1 Bft) 100,00 %
30.04.2023 02:22 8,8 C 7,2 C 3,9 C 87 % 1023,1 hPa 0,0 l/m 0 min 0 min 0 W/m 0,0 km/h (0 Bft) 70,21 %
30.04.2023 02:24 8,7 C 7,2 C 3,9 C 87 % 1023,2 hPa 0,0 l/m 0 min 0 min 0 W/m 0,0 km/h (0 Bft) 81,82 %
30.04.2023 02:26 8,7 C 7,2 C 3,9 C 87 % 1023,2 hPa 0,0 l/m 0 min 0 min 0 W/m 0,0 km/h (0 Bft) 100,00 %
30.04.2023 02:28 8,7 C 7,2 C 3,9 C 87 % 1023,2 hPa 0,0 l/m 0 min 0 min 0 W/m 0,0 km/h (0 Bft) 93,62 %
30.04.2023 02:30 8,6 C 6,7 C 3,9 C 87 % 1023,3 hPa 0,0 l/m 0 min 0 min 0 W/m 0,0 km/h (0 Bft) 93,62 %
30.04.2023 02:32 8,6 C 6,7 C 3,9 C 87 % 1023,2 hPa 0,0 l/m 0 min 0 min 0 W/m 0,0 km/h (0 Bft) 95,74 %
30.04.2023 02:34 8,5 C 6,7 C 3,9 C 87 % 1023,2 hPa 0,0 l/m 0 min 0 min 0 W/m 3,2 km/h (1 Bft) 93,62 %
30.04.2023 02:36 8,5 C 6,7 C 3,9 C 87 % 1023,2 hPa 0,0 l/m 0 min 0 min 0 W/m 6,4 km/h (2 Bft) 95,74 %
30.04.2023 02:38 8,4 C 6,7 C 3,9 C 87 % 1023,2 hPa 0,0 l/m 0 min 0 min 0 W/m 6,4 km/h (2 Bft) 95,74 %
30.04.2023 02:40 8,4 C 6,7 C 3,9 C 87 % 1023,3 hPa 0,0 l/m 0 min 0 min 0 W/m 0,0 km/h (0 Bft) 95,65 %
30.04.2023 02:42 8,4 C 6,7 C 3,9 C 88 % 1023,2 hPa 0,0 l/m 0 min 0 min 0 W/m 3,2 km/h (1 Bft) 95,74 %
30.04.2023 02:44 8,3 C 6,7 C 3,9 C 88 % 1023,3 hPa 0,0 l/m 0 min 0 min 0 W/m 3,2 km/h (1 Bft) 95,74 %
30.04.2023 02:46 8,3 C 6,7 C 3,9 C 88 % 1023,3 hPa 0,0 l/m 0 min 0 min 0 W/m 6,4 km/h (2 Bft) 95,74 %
30.04.2023 02:48 8,3 C 6,7 C 3,9 C 88 % 1023,3 hPa 0,0 l/m 0 min 0 min 0 W/m 6,4 km/h (2 Bft) 95,74 %
30.04.2023 02:50 8,2 C 6,7 C 3,9 C 88 % 1023,3 hPa 0,0 l/m 0 min 0 min 0 W/m 3,2 km/h (1 Bft) 95,74 %
30.04.2023 02:52 8,2 C 6,7 C 3,9 C 88 % 1023,3 hPa 0,0 l/m 0 min 0 min 0 W/m 6,4 km/h (2 Bft) 93,62 %
30.04.2023 02:54 8,2 C 6,7 C 3,9 C 88 % 1023,3 hPa 0,0 l/m 0 min 0 min 0 W/m 3,2 km/h (1 Bft) 97,83 %
30.04.2023 02:56 8,1 C 6,7 C 3,9 C 89 % 1023,3 hPa 0,0 l/m 0 min 0 min 0 W/m 6,4 km/h (2 Bft) 95,74 %
30.04.2023 02:58 8,1 C 6,7 C 3,9 C 89 % 1023,3 hPa 0,0 l/m 0 min 0 min 0 W/m 9,7 km/h (2 Bft) 93,62 %
30.04.2023 03:00 8,1 C 6,7 C 3,9 C 89 % 1023,3 hPa 0,0 l/m 0 min 0 min 0 W/m 6,4 km/h (2 Bft) 97,87 %
30.04.2023 03:02 8,1 C 6,7 C 3,9 C 89 % 1023,2 hPa 0,0 l/m 0 min 0 min 0 W/m 6,4 km/h (2 Bft) 97,87 %
30.04.2023 03:04 8,1 C 6,7 C 3,9 C 89 % 1023,2 hPa 0,0 l/m 0 min 0 min 0 W/m 6,4 km/h (2 Bft) 97,92 %
30.04.2023 03:06 8,0 C 6,7 C 3,9 C 89 % 1023,2 hPa 0,0 l/m 0 min 0 min 0 W/m 3,2 km/h (1 Bft) 98,08 %
30.04.2023 03:08 8,0 C 6,7 C 3,9 C 89 % 1023,3 hPa 0,0 l/m 0 min 0 min 0 W/m 9,7 km/h (2 Bft) 100,00 %
30.04.2023 03:10 7,9 C 6,7 C 3,9 C 89 % 1023,3 hPa 0,0 l/m 0 min 0 min 0 W/m 6,4 km/h (2 Bft) 100,00 %
30.04.2023 03:12 7,9 C 7,2 C 3,9 C 90 % 1023,3 hPa 0,0 l/m 0 min 0 min 0 W/m 12,9 km/h (3 Bft) 100,00 %
30.04.2023 03:14 7,9 C 7,2 C 3,9 C 90 % 1023,3 hPa 0,0 l/m 0 min 0 min 0 W/m 12,9 km/h (3 Bft) 100,00 %
30.04.2023 03:16 7,9 C 7,2 C 3,9 C 90 % 1023,3 hPa 0,0 l/m 0 min 0 min 0 W/m 6,4 km/h (2 Bft) 100,00 %
30.04.2023 03:18 7,9 C 6,7 C 3,9 C 90 % 1023,3 hPa 0,0 l/m 0 min 0 min 0 W/m 6,4 km/h (2 Bft) 100,00 %
30.04.2023 03:20 7,9 C 7,2 C 3,9 C 90 % 1023,3 hPa 0,0 l/m 0 min 0 min 0 W/m 9,7 km/h (2 Bft) 97,87 %
30.04.2023 03:22 7,9 C 6,7 C 3,9 C 90 % 1023,2 hPa 0,0 l/m 0 min 0 min 0 W/m 3,2 km/h (1 Bft) 97,83 %
30.04.2023 03:24 7,9 C 6,7 C 3,9 C 90 % 1023,2 hPa 0,0 l/m 0 min 0 min 0 W/m 12,9 km/h (3 Bft) 97,87 %
30.04.2023 03:26 7,9 C 6,7 C 3,9 C 90 % 1023,2 hPa 0,0 l/m 0 min 0 min 0 W/m 9,7 km/h (2 Bft) 97,87 %
30.04.2023 03:28 7,8 C 6,7 C 3,9 C 91 % 1023,1 hPa 0,0 l/m 0 min 0 min 0 W/m 6,4 km/h (2 Bft) 97,87 %
30.04.2023 03:30 7,8 C 6,7 C 3,9 C 91 % 1023,1 hPa 0,0 l/m 0 min 0 min 0 W/m 9,7 km/h (2 Bft) 97,87 %
30.04.2023 03:32 7,8 C 6,7 C 3,9 C 91 % 1023,1 hPa 0,0 l/m 0 min 0 min 0 W/m 9,7 km/h (2 Bft) 95,74 %
30.04.2023 03:34 7,8 C 6,7 C 3,9 C 91 % 1023,2 hPa 0,0 l/m 0 min 0 min 0 W/m 6,4 km/h (2 Bft) 97,87 %
30.04.2023 03:36 7,8 C 6,7 C 3,9 C 91 % 1023,1 hPa 0,0 l/m 0 min 0 min 0 W/m 6,4 km/h (2 Bft) 97,83 %
30.04.2023 03:38 7,8 C 6,7 C 3,9 C 91 % 1023,2 hPa 0,0 l/m 0 min 0 min 0 W/m 6,4 km/h (2 Bft) 97,87 %
30.04.2023 03:40 7,8 C 6,7 C 3,3 C 91 % 1023,2 hPa 0,0 l/m 0 min 0 min 0 W/m 6,4 km/h (2 Bft) 97,87 %
30.04.2023 03:42 7,8 C 6,7 C 3,3 C 91 % 1023,1 hPa 0,0 l/m 0 min 0 min 0 W/m 3,2 km/h (1 Bft) 97,87 %
30.04.2023 03:44 7,8 C 6,7 C 3,3 C 91 % 1023,2 hPa 0,0 l/m 0 min 0 min 0 W/m 3,2 km/h (1 Bft) 97,87 %
30.04.2023 03:46 7,8 C 6,7 C 3,3 C 91 % 1023,2 hPa 0,0 l/m 0 min 0 min 0 W/m 6,4 km/h (2 Bft) 95,74 %
30.04.2023 03:48 7,7 C 6,7 C 3,3 C 91 % 1023,2 hPa 0,0 l/m 0 min 0 min 0 W/m 6,4 km/h (2 Bft) 97,87 %
30.04.2023 03:50 7,7 C 6,7 C 3,3 C 91 % 1023,2 hPa 0,0 l/m 0 min 0 min 0 W/m 3,2 km/h (1 Bft) 95,65 %
30.04.2023 03:52 7,7 C 6,7 C 3,3 C 91 % 1023,2 hPa 0,0 l/m 0 min 0 min 0 W/m 0,0 km/h (0 Bft) 97,87 %
30.04.2023 03:54 7,7 C 6,7 C 3,3 C 91 % 1023,2 hPa 0,0 l/m 0 min 0 min 0 W/m 0,0 km/h (0 Bft) 95,74 %
30.04.2023 03:56 7,7 C 6,7 C 3,3 C 91 % 1023,2 hPa 0,0 l/m 0 min 0 min 0 W/m 0,0 km/h (0 Bft) 95,74 %
30.04.2023 03:58 7,7 C 6,7 C 3,3 C 91 % 1023,2 hPa 0,0 l/m 0 min 0 min 0 W/m 9,7 km/h (2 Bft) 98,11 %
30.04.2023 04:00 7,7 C 6,7 C 3,3 C 91 % 1023,2 hPa 0,0 l/m 0 min 0 min 0 W/m 6,4 km/h (2 Bft) 97,87 %
30.04.2023 04:05 7,6 C 6,7 C 3,3 C 91 % 1023,2 hPa 0,0 l/m 0 min 0 min 0 W/m 3,2 km/h (1 Bft) 93,55 %
30.04.2023 04:06 7,6 C 6,1 C 3,3 C 91 % 1023,2 hPa 0,0 l/m 0 min 0 min 0 W/m 0,0 km/h (0 Bft) 91,30 %
30.04.2023 04:08 7,6 C 6,1 C 3,3 C 91 % 1023,3 hPa 0,0 l/m 0 min 0 min 0 W/m 0,0 km/h (0 Bft) 95,74 %
30.04.2023 04:10 7,6 C 6,1 C 3,3 C 91 % 1023,3 hPa 0,0 l/m 0 min 0 min 0 W/m 3,2 km/h (1 Bft) 95,74 %
30.04.2023 04:12 7,5 C 6,1 C 3,3 C 91 % 1023,3 hPa 0,0 l/m 0 min 0 min 0 W/m 0,0 km/h (0 Bft) 95,74 %
30.04.2023 04:14 7,5 C 6,1 C 3,3 C 91 % 1023,2 hPa 0,0 l/m 0 min 0 min 0 W/m 0,0 km/h (0 Bft) 97,87 %
30.04.2023 04:16 7,5 C 6,1 C 3,3 C 91 % 1023,2 hPa 0,0 l/m 0 min 0 min 0 W/m 0,0 km/h (0 Bft) 95,65 %
30.04.2023 04:18 7,4 C 6,1 C 3,3 C 91 % 1023,3 hPa 0,0 l/m 0 min 0 min 0 W/m 0,0 km/h (0 Bft) 96,30 %
30.04.2023 04:20 7,4 C 6,1 C 3,3 C 91 % 1023,3 hPa 0,0 l/m 0 min 0 min 0 W/m 0,0 km/h (0 Bft) 95,74 %
30.04.2023 04:22 7,4 C 6,1 C 3,3 C 91 % 1023,3 hPa 0,0 l/m 0 min 0 min 0 W/m 0,0 km/h (0 Bft) 95,74 %
30.04.2023 04:24 7,4 C 6,1 C 2,8 C 91 % 1023,3 hPa 0,0 l/m 0 min 0 min 0 W/m 0,0 km/h (0 Bft) 97,87 %
30.04.2023 04:26 7,4 C 6,1 C 2,8 C 91 % 1023,3 hPa 0,0 l/m 0 min 0 min 0 W/m 3,2 km/h (1 Bft) 93,48 %
30.04.2023 04:28 7,3 C 6,1 C 2,8 C 91 % 1023,3 hPa 0,0 l/m 0 min 0 min 0 W/m 3,2 km/h (1 Bft) 97,37 %
30.04.2023 04:30 7,3 C 6,1 C 2,8 C 91 % 1023,3 hPa 0,0 l/m 0 min 0 min 0 W/m 3,2 km/h (1 Bft) 97,87 %
30.04.2023 04:32 7,3 C 6,1 C 2,8 C 91 % 1023,3 hPa 0,0 l/m 0 min 0 min 0 W/m 0,0 km/h (0 Bft) 100,00 %
30.04.2023 04:34 7,2 C 6,1 C 2,8 C 91 % 1023,3 hPa 0,0 l/m 0 min 0 min 0 W/m 3,2 km/h (1 Bft) 97,87 %
30.04.2023 04:36 7,2 C 6,1 C 2,8 C 91 % 1023,3 hPa 0,0 l/m 0 min 0 min 0 W/m 0,0 km/h (0 Bft) 97,87 %
30.04.2023 04:38 7,2 C 6,1 C 2,8 C 91 % 1023,3 hPa 0,0 l/m 0 min 0 min 0 W/m 0,0 km/h (0 Bft) 100,00 %
30.04.2023 04:40 7,2 C 6,1 C 2,8 C 91 % 1023,3 hPa 0,0 l/m 0 min 0 min 0 W/m 0,0 km/h (0 Bft) 97,87 %
30.04.2023 04:42 7,2 C 6,1 C 2,8 C 91 % 1023,3 hPa 0,0 l/m 0 min 0 min 0 W/m 0,0 km/h (0 Bft) 97,87 %
30.04.2023 04:44 7,1 C 5,6 C 2,8 C 91 % 1023,3 hPa 0,0 l/m 0 min 0 min 0 W/m 3,2 km/h (1 Bft) 97,83 %
30.04.2023 04:46 7,1 C 5,6 C 2,8 C 91 % 1023,2 hPa 0,0 l/m 0 min 0 min 0 W/m 0,0 km/h (0 Bft) 97,87 %
30.04.2023 04:48 7,1 C 5,6 C 2,8 C 91 % 1023,3 hPa 0,0 l/m 0 min 0 min 0 W/m 0,0 km/h (0 Bft) 97,87 %
30.04.2023 04:50 7,1 C 5,6 C 2,8 C 91 % 1023,2 hPa 0,0 l/m 0 min 0 min 0 W/m 0,0 km/h (0 Bft) 97,87 %
30.04.2023 04:52 7,1 C 5,6 C 2,8 C 91 % 1023,2 hPa 0,0 l/m 0 min 0 min 0 W/m 0,0 km/h (0 Bft) 97,87 %
30.04.2023 04:54 7,1 C 5,6 C 2,8 C 91 % 1023,1 hPa 0,0 l/m 0 min 0 min 0 W/m 0,0 km/h (0 Bft) 95,74 %
30.04.2023 04:56 7,0 C 5,6 C 2,8 C 92 % 1023,1 hPa 0,0 l/m 0 min 0 min 0 W/m 3,2 km/h (1 Bft) 97,87 %
30.04.2023 04:58 7,0 C 5,6 C 2,8 C 92 % 1023,1 hPa 0,0 l/m 0 min 0 min 0 W/m 3,2 km/h (1 Bft) 97,83 %
30.04.2023 05:00 7,0 C 5,6 C 2,8 C 92 % 1023,1 hPa 0,0 l/m 0 min 0 min 0 W/m 0,0 km/h (0 Bft) 97,87 %
30.04.2023 05:02 6,9 C 5,6 C 2,8 C 92 % 1023,1 hPa 0,0 l/m 0 min 0 min 0 W/m 0,0 km/h (0 Bft) 97,87 %
30.04.2023 05:04 6,9 C 5,6 C 2,8 C 92 % 1023,1 hPa 0,0 l/m 0 min 0 min 0 W/m 0,0 km/h (0 Bft) 95,92 %
30.04.2023 05:06 6,9 C 5,6 C 2,8 C 92 % 1023,1 hPa 0,0 l/m 0 min 0 min 0 W/m 3,2 km/h (1 Bft) 97,87 %
30.04.2023 05:08 6,9 C 5,6 C 2,8 C 92 % 1023,1 hPa 0,0 l/m 0 min 0 min 0 W/m 0,0 km/h (0 Bft) 97,87 %
30.04.2023 05:10 6,8 C 5,6 C 2,8 C 92 % 1023,2 hPa 0,0 l/m 0 min 0 min 0 W/m 0,0 km/h (0 Bft) 97,37 %
30.04.2023 05:12 6,8 C 5,6 C 2,8 C 92 % 1023,2 hPa 0,0 l/m 0 min 0 min 0 W/m 0,0 km/h (0 Bft) 97,87 %
30.04.2023 05:14 6,8 C 5,6 C 2,8 C 92 % 1023,2 hPa 0,0 l/m 0 min 0 min 0 W/m 0,0 km/h (0 Bft) 97,87 %
30.04.2023 05:16 6,8 C 5,6 C 2,8 C 92 % 1023,2 hPa 0,0 l/m 0 min 0 min 0 W/m 0,0 km/h (0 Bft) 95,65 %
30.04.2023 05:18 6,8 C 5,6 C 2,8 C 92 % 1023,2 hPa 0,0 l/m 0 min 0 min 0 W/m 0,0 km/h (0 Bft) 100,00 %
30.04.2023 05:20 6,8 C 5,6 C 2,8 C 92 % 1023,3 hPa 0,0 l/m 0 min 0 min 0 W/m 3,2 km/h (1 Bft) 100,00 %
30.04.2023 05:22 6,8 C 5,6 C 2,8 C 92 % 1023,2 hPa 0,0 l/m 0 min 0 min 0 W/m 0,0 km/h (0 Bft) 100,00 %
30.04.2023 05:24 6,7 C 5,6 C 2,8 C 92 % 1023,2 hPa 0,0 l/m 0 min 0 min 0 W/m 0,0 km/h (0 Bft) 100,00 %
30.04.2023 05:26 6,7 C 5,6 C 2,8 C 92 % 1023,2 hPa 0,0 l/m 0 min 0 min 0 W/m 6,4 km/h (2 Bft) 100,00 %
30.04.2023 05:28 6,7 C 5,6 C 2,8 C 92 % 1023,2 hPa 0,0 l/m 0 min 0 min 0 W/m 6,4 km/h (2 Bft) 100,00 %
30.04.2023 05:30 6,7 C 5,6 C 2,8 C 92 % 1023,2 hPa 0,0 l/m 0 min 0 min 0 W/m 3,2 km/h (1 Bft) 100,00 %
30.04.2023 05:32 6,7 C 5,6 C 2,8 C 92 % 1023,2 hPa 0,0 l/m 0 min 0 min 0 W/m 3,2 km/h (1 Bft) 100,00 %
30.04.2023 05:34 6,7 C 5,6 C 2,8 C 93 % 1023,2 hPa 0,0 l/m 0 min 0 min 0 W/m 0,0 km/h (0 Bft) 100,00 %
30.04.2023 05:36 6,7 C 5,6 C 2,8 C 92 % 1023,3 hPa 0,0 l/m 0 min 0 min 0 W/m 0,0 km/h (0 Bft) 97,87 %
30.04.2023 05:38 6,7 C 5,6 C 2,8 C 92 % 1023,2 hPa 0,0 l/m 0 min 0 min 0 W/m 3,2 km/h (1 Bft) 97,87 %
30.04.2023 05:40 6,7 C 5,6 C 2,8 C 92 % 1023,2 hPa 0,0 l/m 0 min 0 min 0 W/m 3,2 km/h (1 Bft) 95,74 %
30.04.2023 05:42 6,6 C 5,6 C 2,8 C 92 % 1023,2 hPa 0,0 l/m 0 min 0 min 0 W/m 0,0 km/h (0 Bft) 97,87 %
30.04.2023 05:44 6,6 C 5,6 C 2,8 C 92 % 1023,2 hPa 0,0 l/m 0 min 0 min 0 W/m 3,2 km/h (1 Bft) 97,83 %
30.04.2023 05:46 6,6 C 5,6 C 2,2 C 93 % 1023,2 hPa 0,0 l/m 0 min 0 min 0 W/m 0,0 km/h (0 Bft) 97,87 %
30.04.2023 05:48 6,6 C 5,6 C 2,2 C 93 % 1023,2 hPa 0,0 l/m 0 min 0 min 0 W/m 0,0 km/h (0 Bft) 95,74 %
30.04.2023 05:50 6,6 C 5,6 C 2,2 C 93 % 1023,2 hPa 0,0 l/m 0 min 0 min 0 W/m 0,0 km/h (0 Bft) 97,87 %
30.04.2023 05:52 6,5 C 5,6 C 2,2 C 93 % 1023,2 hPa 0,0 l/m 0 min 0 min 0 W/m 0,0 km/h (0 Bft) 95,74 %
30.04.2023 05:54 6,5 C 5,6 C 2,2 C 93 % 1023,2 hPa 0,0 l/m 0 min 0 min 0 W/m 3,2 km/h (1 Bft) 97,87 %
30.04.2023 05:56 6,5 C 5,6 C 2,8 C 93 % 1023,2 hPa 0,0 l/m 0 min 0 min 0 W/m 0,0 km/h (0 Bft) 95,74 %
30.04.2023 05:58 6,5 C 5,6 C 2,8 C 93 % 1023,1 hPa 0,0 l/m 0 min 0 min 0 W/m 0,0 km/h (0 Bft) 97,83 %
30.04.2023 06:00 6,5 C 5,6 C 2,8 C 93 % 1023,2 hPa 0,0 l/m 0 min 0 min 0 W/m 0,0 km/h (0 Bft) 97,87 %
30.04.2023 06:02 6,5 C 5,6 C 2,2 C 93 % 1023,2 hPa 0,0 l/m 0 min 0 min 0 W/m 0,0 km/h (0 Bft) 97,87 %
30.04.2023 06:04 6,5 C 5,6 C 2,2 C 93 % 1023,2 hPa 0,0 l/m 0 min 0 min 0 W/m 0,0 km/h (0 Bft) 97,92 %
30.04.2023 06:08 6,4 C 5,0 C 2,2 C 93 % 1023,1 hPa 0,0 l/m 0 min 0 min 0 W/m 3,2 km/h (1 Bft) 97,87 %
30.04.2023 06:10 6,4 C 5,0 C 2,2 C 93 % 1023,1 hPa 0,0 l/m 0 min 0 min 0 W/m 0,0 km/h (0 Bft) 100,00 %
30.04.2023 06:12 6,4 C 5,0 C 2,2 C 93 % 1023,1 hPa 0,0 l/m 0 min 0 min 2 W/m 0,0 km/h (0 Bft) 100,00 %
30.04.2023 06:14 6,4 C 5,0 C 2,2 C 93 % 1023,1 hPa 0,0 l/m 0 min 0 min 5 W/m 0,0 km/h (0 Bft) 100,00 %
30.04.2023 06:16 6,4 C 5,0 C 2,2 C 93 % 1023,1 hPa 0,0 l/m 0 min 0 min 5 W/m 0,0 km/h (0 Bft) 100,00 %
30.04.2023 06:18 6,3 C 5,0 C 2,2 C 93 % 1023,1 hPa 0,0 l/m 0 min 0 min 5 W/m 0,0 km/h (0 Bft) 100,00 %
30.04.2023 06:20 6,3 C 5,0 C 2,2 C 93 % 1023,1 hPa 0,0 l/m 0 min 0 min 7 W/m 0,0 km/h (0 Bft) 100,00 %
30.04.2023 06:22 6,3 C 5,0 C 2,2 C 93 % 1023,2 hPa 0,0 l/m 0 min 0 min 7 W/m 0,0 km/h (0 Bft) 100,00 %
30.04.2023 06:24 6,3 C 5,0 C 2,2 C 93 % 1023,2 hPa 0,0 l/m 0 min 0 min 8 W/m 0,0 km/h (0 Bft) 100,00 %
30.04.2023 06:26 6,3 C 5,0 C 2,2 C 93 % 1023,3 hPa 0,0 l/m 0 min 0 min 9 W/m 0,0 km/h (0 Bft) 97,87 %
30.04.2023 06:28 6,3 C 5,0 C 2,2 C 93 % 1023,3 hPa 0,0 l/m 0 min 0 min 9 W/m 0,0 km/h (0 Bft) 100,00 %
30.04.2023 06:30 6,2 C 5,0 C 2,2 C 93 % 1023,3 hPa 0,0 l/m 0 min 0 min 11 W/m 0,0 km/h (0 Bft) 100,00 %
30.04.2023 06:32 6,2 C 5,0 C 2,2 C 93 % 1023,4 hPa 0,0 l/m 0 min 0 min 11 W/m 0,0 km/h (0 Bft) 100,00 %
30.04.2023 06:34 6,2 C 5,0 C 2,2 C 93 % 1023,4 hPa 0,0 l/m 0 min 0 min 11 W/m 0,0 km/h (0 Bft) 95,74 %
30.04.2023 06:36 6,2 C 5,0 C 2,2 C 93 % 1023,4 hPa 0,0 l/m 0 min 0 min 12 W/m 0,0 km/h (0 Bft) 97,87 %
30.04.2023 06:38 6,2 C 5,0 C 2,2 C 93 % 1023,3 hPa 0,0 l/m 0 min 0 min 12 W/m 0,0 km/h (0 Bft) 100,00 %
30.04.2023 06:40 6,1 C 5,0 C 2,2 C 93 % 1023,4 hPa 0,0 l/m 0 min 0 min 13 W/m 0,0 km/h (0 Bft) 97,87 %
30.04.2023 06:42 6,1 C 5,0 C 2,2 C 93 % 1023,3 hPa 0,0 l/m 0 min 0 min 14 W/m 0,0 km/h (0 Bft) 100,00 %
30.04.2023 06:44 6,1 C 5,0 C 2,2 C 93 % 1023,3 hPa 0,0 l/m 0 min 0 min 14 W/m 0,0 km/h (0 Bft) 97,87 %
30.04.2023 06:46 6,1 C 5,0 C 2,2 C 93 % 1023,3 hPa 0,0 l/m 0 min 0 min 15 W/m 0,0 km/h (0 Bft) 100,00 %
30.04.2023 06:48 6,1 C 5,0 C 2,2 C 93 % 1023,3 hPa 0,0 l/m 0 min 0 min 16 W/m 0,0 km/h (0 Bft) 97,87 %
30.04.2023 06:50 6,1 C 5,0 C 2,2 C 93 % 1023,4 hPa 0,0 l/m 0 min 0 min 16 W/m 0,0 km/h (0 Bft) 97,87 %
30.04.2023 06:52 6,1 C 5,0 C 2,2 C 93 % 1023,4 hPa 0,0 l/m 0 min 0 min 18 W/m 0,0 km/h (0 Bft) 95,74 %
30.04.2023 06:54 6,0 C 5,0 C 2,2 C 93 % 1023,4 hPa 0,0 l/m 0 min 0 min 18 W/m 9,7 km/h (2 Bft) 97,83 %
30.04.2023 06:56 6,1 C 5,6 C 2,2 C 93 % 1023,5 hPa 0,0 l/m 0 min 0 min 18 W/m 0,0 km/h (0 Bft) 93,62 %
30.04.2023 06:58 6,1 C 5,6 C 2,2 C 93 % 1023,5 hPa 0,0 l/m 0 min 0 min 19 W/m 3,2 km/h (1 Bft) 95,74 %
30.04.2023 07:00 6,1 C 5,6 C 2,2 C 94 % 1023,5 hPa 0,0 l/m 0 min 0 min 19 W/m 6,4 km/h (2 Bft) 97,87 %
30.04.2023 07:02 6,1 C 5,6 C 2,2 C 94 % 1023,5 hPa 0,0 l/m 0 min 0 min 20 W/m 3,2 km/h (1 Bft) 97,87 %
30.04.2023 07:04 6,1 C 5,6 C 2,2 C 94 % 1023,5 hPa 0,0 l/m 0 min 0 min 21 W/m 3,2 km/h (1 Bft) 100,00 %
30.04.2023 07:06 6,1 C 5,6 C 2,8 C 94 % 1023,5 hPa 0,0 l/m 0 min 0 min 21 W/m 3,2 km/h (1 Bft) 95,65 %
30.04.2023 07:08 6,2 C 5,6 C 2,8 C 94 % 1023,5 hPa 0,0 l/m 0 min 0 min 21 W/m 3,2 km/h (1 Bft) 97,87 %
30.04.2023 07:10 6,2 C 5,6 C 2,8 C 94 % 1023,5 hPa 0,0 l/m 0 min 0 min 23 W/m 0,0 km/h (0 Bft) 96,43 %
30.04.2023 07:12 6,2 C 5,6 C 2,8 C 94 % 1023,5 hPa 0,0 l/m 0 min 0 min 23 W/m 3,2 km/h (1 Bft) 93,62 %
30.04.2023 07:14 6,2 C 5,6 C 2,8 C 94 % 1023,5 hPa 0,0 l/m 0 min 0 min 24 W/m 3,2 km/h (1 Bft) 93,48 %
30.04.2023 07:16 6,3 C 5,6 C 2,8 C 94 % 1023,6 hPa 0,0 l/m 0 min 0 min 25 W/m 3,2 km/h (1 Bft) 95,74 %
30.04.2023 07:18 6,3 C 6,1 C 2,8 C 94 % 1023,6 hPa 0,0 l/m 0 min 0 min 25 W/m 3,2 km/h (1 Bft) 95,65 %
30.04.2023 07:20 6,3 C 6,1 C 2,8 C 94 % 1023,6 hPa 0,0 l/m 0 min 0 min 25 W/m 0,0 km/h (0 Bft) 93,62 %
30.04.2023 07:22 6,4 C 6,1 C 2,8 C 94 % 1023,6 hPa 0,0 l/m 0 min 0 min 26 W/m 0,0 km/h (0 Bft) 93,62 %
30.04.2023 07:24 6,4 C 6,1 C 2,8 C 94 % 1023,6 hPa 0,0 l/m 0 min 0 min 26 W/m 3,2 km/h (1 Bft) 95,74 %
30.04.2023 07:26 6,4 C 6,1 C 2,8 C 95 % 1023,6 hPa 0,0 l/m 0 min 0 min 26 W/m 3,2 km/h (1 Bft) 93,62 %
30.04.2023 07:28 6,5 C 6,1 C 2,8 C 95 % 1023,7 hPa 0,0 l/m 0 min 0 min 27 W/m 0,0 km/h (0 Bft) 95,65 %
30.04.2023 07:30 6,5 C 6,1 C 2,8 C 95 % 1023,6 hPa 0,0 l/m 0 min 0 min 27 W/m 0,0 km/h (0 Bft) 95,74 %
30.04.2023 07:32 6,6 C 6,1 C 3,3 C 95 % 1023,7 hPa 0,0 l/m 0 min 0 min 28 W/m 3,2 km/h (1 Bft) 93,62 %
30.04.2023 07:34 6,6 C 6,1 C 3,3 C 95 % 1023,7 hPa 0,0 l/m 0 min 0 min 28 W/m 9,7 km/h (2 Bft) 97,87 %
30.04.2023 07:36 6,6 C 6,1 C 3,3 C 95 % 1023,7 hPa 0,0 l/m 0 min 0 min 29 W/m 3,2 km/h (1 Bft) 93,62 %
30.04.2023 07:38 6,7 C 6,1 C 3,3 C 95 % 1023,7 hPa 0,0 l/m 0 min 0 min 30 W/m 3,2 km/h (1 Bft) 95,74 %
30.04.2023 07:40 6,7 C 6,7 C 3,3 C 95 % 1023,8 hPa 0,0 l/m 0 min 0 min 30 W/m 3,2 km/h (1 Bft) 95,74 %
30.04.2023 07:42 6,7 C 6,7 C 3,3 C 95 % 1023,8 hPa 0,0 l/m 0 min 0 min 31 W/m 6,4 km/h (2 Bft) 93,48 %
30.04.2023 07:44 6,7 C 6,7 C 3,3 C 95 % 1023,8 hPa 0,0 l/m 0 min 0 min 32 W/m 3,2 km/h (1 Bft) 95,74 %
30.04.2023 07:46 6,8 C 6,7 C 3,3 C 95 % 1023,8 hPa 0,0 l/m 0 min 0 min 32 W/m 0,0 km/h (0 Bft) 97,87 %
30.04.2023 07:48 6,8 C 6,7 C 3,3 C 95 % 1023,8 hPa 0,0 l/m 0 min 0 min 33 W/m 0,0 km/h (0 Bft) 95,74 %
30.04.2023 07:50 6,9 C 6,7 C 3,3 C 95 % 1023,8 hPa 0,0 l/m 0 min 0 min 33 W/m 0,0 km/h (0 Bft) 97,87 %
30.04.2023 07:52 6,9 C 6,7 C 3,3 C 95 % 1023,9 hPa 0,0 l/m 0 min 0 min 33 W/m 0,0 km/h (0 Bft) 95,74 %
30.04.2023 07:54 7,0 C 6,7 C 3,3 C 95 % 1023,9 hPa 0,0 l/m 0 min 0 min 35 W/m 9,7 km/h (2 Bft) 95,74 %
30.04.2023 07:56 7,1 C 6,7 C 3,3 C 96 % 1023,9 hPa 0,0 l/m 0 min 0 min 35 W/m 9,7 km/h (2 Bft) 97,83 %
30.04.2023 07:58 7,1 C 7,2 C 3,9 C 96 % 1023,9 hPa 0,0 l/m 0 min 0 min 35 W/m 9,7 km/h (2 Bft) 97,87 %
30.04.2023 08:00 7,2 C 7,2 C 3,9 C 96 % 1023,9 hPa 0,0 l/m 0 min 0 min 35 W/m 6,4 km/h (2 Bft) 97,92 %
30.04.2023 08:02 7,2 C 7,2 C 3,9 C 96 % 1023,9 hPa 0,0 l/m 0 min 0 min 35 W/m 9,7 km/h (2 Bft) 97,83 %
30.04.2023 08:04 7,2 C 7,2 C 3,9 C 95 % 1023,9 hPa 0,0 l/m 0 min 0 min 37 W/m 9,7 km/h (2 Bft) 100,00 %
30.04.2023 08:06 7,3 C 7,2 C 3,9 C 95 % 1023,9 hPa 0,0 l/m 0 min 0 min 37 W/m 9,7 km/h (2 Bft) 100,00 %
30.04.2023 08:08 7,3 C 7,2 C 3,9 C 95 % 1023,8 hPa 0,0 l/m 0 min 0 min 37 W/m 6,4 km/h (2 Bft) 97,87 %
30.04.2023 08:10 7,3 C 7,2 C 3,9 C 95 % 1023,8 hPa 0,0 l/m 0 min 0 min 37 W/m 9,7 km/h (2 Bft) 97,22 %
30.04.2023 08:12 7,4 C 7,2 C 3,9 C 95 % 1023,8 hPa 0,0 l/m 0 min 0 min 38 W/m 6,4 km/h (2 Bft) 100,00 %
30.04.2023 08:14 7,4 C 7,2 C 3,9 C 96 % 1023,8 hPa 0,0 l/m 0 min 0 min 39 W/m 9,7 km/h (2 Bft) 100,00 %
30.04.2023 08:16 7,4 C 7,8 C 4,4 C 96 % 1023,8 hPa 0,0 l/m 0 min 0 min 39 W/m 9,7 km/h (2 Bft) 100,00 %
30.04.2023 08:18 7,5 C 7,8 C 4,4 C 96 % 1023,8 hPa 0,0 l/m 0 min 0 min 39 W/m 6,4 km/h (2 Bft) 100,00 %
30.04.2023 08:20 7,6 C 7,8 C 4,4 C 96 % 1023,8 hPa 0,0 l/m 0 min 0 min 39 W/m 3,2 km/h (1 Bft) 100,00 %
30.04.2023 08:22 7,6 C 7,8 C 4,4 C 96 % 1023,8 hPa 0,0 l/m 0 min 0 min 70 W/m 9,7 km/h (2 Bft) 100,00 %
30.04.2023 08:24 7,7 C 7,8 C 4,4 C 96 % 1023,8 hPa 0,0 l/m 0 min 0 min 66 W/m 6,4 km/h (2 Bft) 100,00 %
30.04.2023 08:26 7,7 C 7,8 C 4,4 C 96 % 1023,8 hPa 0,0 l/m 0 min 0 min 70 W/m 9,7 km/h (2 Bft) 95,65 %
30.04.2023 08:28 7,8 C 7,8 C 4,4 C 96 % 1023,8 hPa 0,0 l/m 2 min 0 min 238 W/m 6,4 km/h (2 Bft) 97,87 %
30.04.2023 08:30 7,9 C 8,3 C 4,4 C 96 % 1023,7 hPa 0,0 l/m 0 min 0 min 95 W/m 9,7 km/h (2 Bft) 100,00 %
30.04.2023 08:32 7,9 C 8,3 C 5,0 C 96 % 1023,8 hPa 0,0 l/m 0 min 0 min 42 W/m 6,4 km/h (2 Bft) 100,00 %
30.04.2023 08:34 8,0 C 8,3 C 5,0 C 96 % 1023,8 hPa 0,0 l/m 0 min 0 min 42 W/m 3,2 km/h (1 Bft) 97,87 %
30.04.2023 08:36 8,1 C 8,3 C 5,0 C 96 % 1023,8 hPa 0,0 l/m 0 min 0 min 63 W/m 12,9 km/h (3 Bft) 100,00 %
30.04.2023 08:38 8,2 C 8,3 C 5,0 C 96 % 1023,8 hPa 0,0 l/m 2 min 0 min 191 W/m 6,4 km/h (2 Bft) 100,00 %
30.04.2023 08:40 8,3 C 8,9 C 5,0 C 96 % 1023,7 hPa 0,0 l/m 2 min 0 min 326 W/m 6,4 km/h (2 Bft) 100,00 %
30.04.2023 08:42 8,3 C 9,4 C 5,0 C 96 % 1023,7 hPa 0,0 l/m 2 min 0 min 332 W/m 9,7 km/h (2 Bft) 97,87 %
30.04.2023 08:44 8,4 C 11,7 C 5,0 C 96 % 1023,7 hPa 0,0 l/m 2 min 0 min 339 W/m 3,2 km/h (1 Bft) 100,00 %
30.04.2023 08:46 8,6 C 13,9 C 5,6 C 96 % 1023,7 hPa 0,0 l/m 2 min 0 min 345 W/m 9,7 km/h (2 Bft) 100,00 %
30.04.2023 08:48 8,6 C 14,4 C 5,6 C 96 % 1023,7 hPa 0,0 l/m 2 min 0 min 353 W/m 6,4 km/h (2 Bft) 100,00 %
30.04.2023 08:50 8,8 C 15,6 C 5,6 C 95 % 1023,8 hPa 0,0 l/m 2 min 0 min 360 W/m 3,2 km/h (1 Bft) 100,00 %
30.04.2023 08:52 8,9 C 16,7 C 5,6 C 95 % 1023,7 hPa 0,0 l/m 2 min 0 min 369 W/m 6,4 km/h (2 Bft) 100,00 %
30.04.2023 08:54 9,1 C 17,2 C 5,6 C 95 % 1023,7 hPa 0,0 l/m 2 min 0 min 376 W/m 6,4 km/h (2 Bft) 97,83 %
30.04.2023 08:56 9,2 C 17,2 C 5,6 C 95 % 1023,7 hPa 0,0 l/m 2 min 0 min 381 W/m 9,7 km/h (2 Bft) 97,87 %
30.04.2023 08:58 9,3 C 17,2 C 6,1 C 95 % 1023,7 hPa 0,0 l/m 2 min 0 min 389 W/m 9,7 km/h (2 Bft) 100,00 %
30.04.2023 09:00 9,6 C 17,8 C 6,7 C 95 % 1023,7 hPa 0,0 l/m 2 min 0 min 396 W/m 9,7 km/h (2 Bft) 100,00 %
30.04.2023 09:02 9,7 C 18,3 C 6,7 C 94 % 1023,8 hPa 0,0 l/m 2 min 0 min 404 W/m 3,2 km/h (1 Bft) 100,00 %
30.04.2023 09:04 9,9 C 18,9 C 7,2 C 94 % 1023,7 hPa 0,0 l/m 2 min 0 min 411 W/m 6,4 km/h (2 Bft) 97,87 %
30.04.2023 09:06 10,3 C 20,0 C 7,2 C 94 % 1023,8 hPa 0,0 l/m 2 min 0 min 419 W/m 9,7 km/h (2 Bft) 100,00 %
30.04.2023 09:08 10,6 C 20,0 C 7,8 C 93 % 1023,8 hPa 0,0 l/m 2 min 0 min 426 W/m 6,4 km/h (2 Bft) 97,22 %
30.04.2023 09:10 10,9 C 20,6 C 7,8 C 93 % 1023,8 hPa 0,0 l/m 2 min 0 min 434 W/m 6,4 km/h (2 Bft) 97,87 %
30.04.2023 09:12 11,2 C 20,6 C 7,8 C 92 % 1023,8 hPa 0,0 l/m 2 min 0 min 440 W/m 6,4 km/h (2 Bft) 97,87 %
30.04.2023 09:14 11,3 C 20,0 C 8,3 C 90 % 1023,8 hPa 0,0 l/m 2 min 0 min 442 W/m 12,9 km/h (3 Bft) 97,87 %
30.04.2023 09:16 11,4 C 20,0 C 8,3 C 89 % 1023,7 hPa 0,0 l/m 2 min 0 min 452 W/m 0,0 km/h (0 Bft) 97,87 %
30.04.2023 09:18 11,7 C 20,0 C 8,3 C 88 % 1023,7 hPa 0,0 l/m 2 min 0 min 458 W/m 0,0 km/h (0 Bft) 95,74 %
30.04.2023 09:20 11,8 C 20,0 C 8,3 C 87 % 1023,7 hPa 0,0 l/m 2 min 0 min 464 W/m 0,0 km/h (0 Bft) 95,74 %
30.04.2023 09:22 12,0 C 20,0 C 8,3 C 86 % 1023,7 hPa 0,0 l/m 2 min 0 min 468 W/m 0,0 km/h (0 Bft) 97,83 %
30.04.2023 09:24 12,2 C 20,0 C 8,9 C 85 % 1023,7 hPa 0,0 l/m 2 min 0 min 470 W/m 0,0 km/h (0 Bft) 95,74 %
30.04.2023 09:26 12,4 C 20,6 C 8,9 C 84 % 1023,7 hPa 0,0 l/m 2 min 0 min 478 W/m 0,0 km/h (0 Bft) 91,49 %
30.04.2023 09:28 12,6 C 20,6 C 8,9 C 84 % 1023,7 hPa 0,0 l/m 2 min 0 min 480 W/m 0,0 km/h (0 Bft) 97,87 %
30.04.2023 09:30 12,8 C 19,4 C 8,9 C 83 % 1023,7 hPa 0,0 l/m 2 min 0 min 493 W/m 3,2 km/h (1 Bft) 97,87 %
30.04.2023 09:32 12,8 C 18,3 C 8,9 C 81 % 1023,7 hPa 0,0 l/m 2 min 0 min 497 W/m 12,9 km/h (3 Bft) 95,74 %
30.04.2023 09:34 12,9 C 18,3 C 8,9 C 80 % 1023,6 hPa 0,0 l/m 2 min 0 min 502 W/m 9,7 km/h (2 Bft) 97,87 %
30.04.2023 09:36 12,9 C 18,9 C 8,9 C 80 % 1023,7 hPa 0,0 l/m 2 min 0 min 510 W/m 9,7 km/h (2 Bft) 97,87 %
30.04.2023 09:38 13,0 C 19,4 C 8,9 C 80 % 1023,7 hPa 0,0 l/m 2 min 0 min 516 W/m 6,4 km/h (2 Bft) 97,83 %
30.04.2023 09:40 13,1 C 18,9 C 8,9 C 80 % 1023,7 hPa 0,0 l/m 2 min 0 min 524 W/m 12,9 km/h (3 Bft) 97,96 %
30.04.2023 09:42 13,1 C 20,0 C 8,9 C 79 % 1023,7 hPa 0,0 l/m 2 min 0 min 533 W/m 6,4 km/h (2 Bft) 100,00 %
30.04.2023 09:44 13,2 C 20,6 C 9,4 C 79 % 1023,7 hPa 0,0 l/m 2 min 0 min 536 W/m 6,4 km/h (2 Bft) 100,00 %
30.04.2023 09:46 13,3 C 20,0 C 9,4 C 79 % 1023,6 hPa 0,0 l/m 2 min 0 min 544 W/m 6,4 km/h (2 Bft) 100,00 %
30.04.2023 09:48 13,4 C 19,4 C 9,4 C 78 % 1023,6 hPa 0,0 l/m 2 min 0 min 551 W/m 6,4 km/h (2 Bft) 97,87 %
30.04.2023 09:50 13,5 C 20,0 C 8,9 C 78 % 1023,6 hPa 0,0 l/m 2 min 0 min 555 W/m 9,7 km/h (2 Bft) 100,00 %
30.04.2023 09:52 13,5 C 20,0 C 8,9 C 77 % 1023,6 hPa 0,0 l/m 2 min 0 min 409 W/m 9,7 km/h (2 Bft) 100,00 %
30.04.2023 09:54 13,6 C 20,0 C 8,9 C 78 % 1023,6 hPa 0,0 l/m 0 min 0 min 192 W/m 6,4 km/h (2 Bft) 100,00 %
30.04.2023 09:56 13,7 C 20,6 C 8,9 C 78 % 1023,6 hPa 0,0 l/m 2 min 0 min 369 W/m 6,4 km/h (2 Bft) 100,00 %
30.04.2023 09:58 13,8 C 20,6 C 8,9 C 77 % 1023,6 hPa 0,0 l/m 2 min 0 min 581 W/m 6,4 km/h (2 Bft) 100,00 %
30.04.2023 10:00 13,9 C 21,1 C 8,9 C 78 % 1023,7 hPa 0,0 l/m 2 min 0 min 578 W/m 9,7 km/h (2 Bft) 100,00 %
30.04.2023 10:02 14,0 C 21,1 C 8,9 C 77 % 1023,6 hPa 0,0 l/m 2 min 0 min 580 W/m 9,7 km/h (2 Bft) 100,00 %
30.04.2023 10:04 14,0 C 20,6 C 8,9 C 76 % 1023,6 hPa 0,0 l/m 2 min 0 min 589 W/m 6,4 km/h (2 Bft) 97,92 %
30.04.2023 10:06 14,1 C 20,0 C 8,9 C 76 % 1023,6 hPa 0,0 l/m 2 min 0 min 468 W/m 6,4 km/h (2 Bft) 100,00 %
30.04.2023 10:08 14,1 C 20,6 C 8,9 C 76 % 1023,6 hPa 0,0 l/m 0 min 0 min 169 W/m 3,2 km/h (1 Bft) 95,65 %
30.04.2023 10:10 14,3 C 21,1 C 8,9 C 76 % 1023,7 hPa 0,0 l/m 0 min 0 min 70 W/m 9,7 km/h (2 Bft) 95,74 %
30.04.2023 10:12 14,3 C 21,1 C 8,9 C 76 % 1023,7 hPa 0,0 l/m 0 min 0 min 124 W/m 9,7 km/h (2 Bft) 97,87 %
30.04.2023 10:14 14,3 C 20,6 C 8,9 C 75 % 1023,7 hPa 0,0 l/m 2 min 0 min 355 W/m 6,4 km/h (2 Bft) 97,87 %
30.04.2023 10:16 14,3 C 20,6 C 9,4 C 75 % 1023,7 hPa 0,0 l/m 2 min 0 min 624 W/m 3,2 km/h (1 Bft) 95,74 %
30.04.2023 10:18 14,3 C 21,1 C 9,4 C 75 % 1023,7 hPa 0,0 l/m 2 min 0 min 630 W/m 6,4 km/h (2 Bft) 97,87 %
30.04.2023 10:20 14,4 C 21,1 C 9,4 C 76 % 1023,7 hPa 0,0 l/m 2 min 0 min 636 W/m 6,4 km/h (2 Bft) 97,87 %
30.04.2023 10:22 14,4 C 21,1 C 10,0 C 75 % 1023,7 hPa 0,0 l/m 2 min 0 min 642 W/m 6,4 km/h (2 Bft) 95,65 %
30.04.2023 10:24 14,4 C 20,6 C 10,0 C 75 % 1023,7 hPa 0,0 l/m 2 min 0 min 645 W/m 9,7 km/h (2 Bft) 97,87 %
30.04.2023 10:26 14,4 C 20,6 C 10,0 C 75 % 1023,7 hPa 0,0 l/m 2 min 0 min 647 W/m 6,4 km/h (2 Bft) 93,62 %
30.04.2023 10:28 14,5 C 20,0 C 10,0 C 75 % 1023,7 hPa 0,0 l/m 2 min 0 min 650 W/m 12,9 km/h (3 Bft) 95,74 %
30.04.2023 10:30 14,5 C 20,0 C 10,0 C 74 % 1023,7 hPa 0,0 l/m 2 min 0 min 651 W/m 6,4 km/h (2 Bft) 95,74 %
30.04.2023 10:32 14,5 C 19,4 C 10,6 C 74 % 1023,7 hPa 0,0 l/m 2 min 0 min 658 W/m 6,4 km/h (2 Bft) 53,33 %
30.04.2023 10:34 14,5 C 18,9 C 11,1 C 74 % 1023,7 hPa 0,0 l/m 2 min 0 min 664 W/m 6,4 km/h (2 Bft) 97,87 %
30.04.2023 10:36 14,6 C 18,9 C 10,6 C 74 % 1023,7 hPa 0,0 l/m 2 min 0 min 667 W/m 9,7 km/h (2 Bft) 95,65 %
30.04.2023 10:38 14,6 C 18,3 C 10,6 C 75 % 1023,7 hPa 0,0 l/m 2 min 0 min 669 W/m 6,4 km/h (2 Bft) 97,87 %
30.04.2023 10:40 14,7 C 18,3 C 10,6 C 75 % 1023,7 hPa 0,0 l/m 2 min 0 min 672 W/m 9,7 km/h (2 Bft) 97,87 %
30.04.2023 10:42 14,7 C 19,4 C 10,6 C 75 % 1023,7 hPa 0,0 l/m 2 min 0 min 674 W/m 9,7 km/h (2 Bft) 95,74 %
30.04.2023 10:44 14,7 C 19,4 C 10,6 C 75 % 1023,6 hPa 0,0 l/m 2 min 0 min 680 W/m 6,4 km/h (2 Bft) 91,49 %
30.04.2023 10:46 14,8 C 19,4 C 10,6 C 75 % 1023,7 hPa 0,0 l/m 2 min 0 min 686 W/m 6,4 km/h (2 Bft) 95,74 %
30.04.2023 10:48 14,9 C 18,3 C 10,6 C 74 % 1023,7 hPa 0,0 l/m 2 min 0 min 699 W/m 6,4 km/h (2 Bft) 97,87 %
30.04.2023 10:50 14,9 C 17,8 C 11,1 C 74 % 1023,7 hPa 0,0 l/m 2 min 0 min 702 W/m 6,4 km/h (2 Bft) 97,87 %
30.04.2023 10:52 15,1 C 17,8 C 11,1 C 74 % 1023,7 hPa 0,0 l/m 2 min 0 min 706 W/m 9,7 km/h (2 Bft) 95,65 %
30.04.2023 10:54 15,1 C 17,2 C 11,1 C 73 % 1023,7 hPa 0,0 l/m 2 min 0 min 716 W/m 9,7 km/h (2 Bft) 93,88 %
30.04.2023 10:56 15,2 C 17,8 C 11,1 C 73 % 1023,6 hPa 0,0 l/m 2 min 0 min 716 W/m 9,7 km/h (2 Bft) 97,87 %
30.04.2023 10:58 15,2 C 17,8 C 11,1 C 72 % 1023,7 hPa 0,0 l/m 2 min 0 min 715 W/m 9,7 km/h (2 Bft) 93,62 %
30.04.2023 11:00 15,2 C 17,8 C 11,1 C 72 % 1023,7 hPa 0,0 l/m 2 min 0 min 724 W/m 12,9 km/h (3 Bft) 93,48 %
30.04.2023 11:02 15,3 C 18,3 C 11,1 C 72 % 1023,6 hPa 0,0 l/m 2 min 0 min 734 W/m 9,7 km/h (2 Bft) 95,74 %
30.04.2023 11:04 15,3 C 20,0 C 11,1 C 72 % 1023,6 hPa 0,0 l/m 2 min 0 min 737 W/m 9,7 km/h (2 Bft) 93,62 %
30.04.2023 11:06 15,3 C 18,9 C 11,1 C 71 % 1023,6 hPa 0,0 l/m 2 min 0 min 735 W/m 12,9 km/h (3 Bft) 95,74 %
30.04.2023 11:08 15,3 C 17,8 C 10,6 C 70 % 1023,6 hPa 0,0 l/m 2 min 0 min 731 W/m 9,7 km/h (2 Bft) 93,75 %
30.04.2023 11:10 15,3 C 17,8 C 10,6 C 70 % 1023,5 hPa 0,0 l/m 2 min 0 min 734 W/m 6,4 km/h (2 Bft) 97,87 %
30.04.2023 11:12 15,3 C 18,3 C 11,1 C 71 % 1023,5 hPa 0,0 l/m 2 min 0 min 740 W/m 3,2 km/h (1 Bft) 91,49 %
30.04.2023 11:14 15,4 C 19,4 C 11,1 C 71 % 1023,5 hPa 0,0 l/m 2 min 0 min 739 W/m 9,7 km/h (2 Bft) 97,83 %
30.04.2023 11:16 15,4 C 20,6 C 11,7 C 70 % 1023,4 hPa 0,0 l/m 2 min 0 min 742 W/m 6,4 km/h (2 Bft) 97,87 %
30.04.2023 11:18 15,6 C 21,7 C 12,2 C 70 % 1023,5 hPa 0,0 l/m 2 min 0 min 729 W/m 12,9 km/h (3 Bft) 95,74 %
30.04.2023 11:20 15,7 C 21,1 C 12,2 C 70 % 1023,5 hPa 0,0 l/m 2 min 0 min 734 W/m 16,1 km/h (3 Bft) 97,87 %
30.04.2023 11:22 15,7 C 21,7 C 12,2 C 69 % 1023,5 hPa 0,0 l/m 2 min 0 min 738 W/m 9,7 km/h (2 Bft) 95,74 %
30.04.2023 11:24 15,8 C 22,8 C 12,2 C 69 % 1023,5 hPa 0,0 l/m 2 min 0 min 747 W/m 19,3 km/h (3 Bft) 95,74 %
30.04.2023 11:26 15,8 C 22,2 C 12,8 C 70 % 1023,5 hPa 0,0 l/m 2 min 0 min 765 W/m 12,9 km/h (3 Bft) 97,87 %
30.04.2023 11:28 15,9 C 22,8 C 13,3 C 69 % 1023,5 hPa 0,0 l/m 2 min 0 min 781 W/m 9,7 km/h (2 Bft) 97,83 %
30.04.2023 11:30 15,9 C 21,7 C 13,9 C 69 % 1023,4 hPa 0,0 l/m 2 min 0 min 788 W/m 6,4 km/h (2 Bft) 97,87 %
30.04.2023 11:32 16,1 C 22,2 C 13,9 C 69 % 1023,4 hPa 0,0 l/m 2 min 0 min 791 W/m 9,7 km/h (2 Bft) 97,87 %
30.04.2023 11:34 16,1 C 22,2 C 14,4 C 69 % 1023,4 hPa 0,0 l/m 2 min 0 min 794 W/m 9,7 km/h (2 Bft) 97,87 %
30.04.2023 11:36 16,2 C 21,1 C 14,4 C 69 % 1023,4 hPa 0,0 l/m 2 min 0 min 795 W/m 12,9 km/h (3 Bft) 95,74 %
30.04.2023 11:38 16,3 C 21,1 C 15,0 C 69 % 1023,3 hPa 0,0 l/m 2 min 0 min 796 W/m 12,9 km/h (3 Bft) 97,87 %
30.04.2023 11:40 16,4 C 21,7 C 15,0 C 69 % 1023,3 hPa 0,0 l/m 2 min 0 min 800 W/m 9,7 km/h (2 Bft) 97,83 %
30.04.2023 11:42 16,6 C 22,8 C 14,4 C 68 % 1023,3 hPa 0,0 l/m 2 min 0 min 807 W/m 9,7 km/h (2 Bft) 93,62 %
30.04.2023 11:44 16,6 C 22,8 C 13,3 C 67 % 1023,2 hPa 0,0 l/m 2 min 0 min 805 W/m 12,9 km/h (3 Bft) 97,87 %
30.04.2023 11:46 16,6 C 21,1 C 13,3 C 67 % 1023,2 hPa 0,0 l/m 2 min 0 min 804 W/m 12,9 km/h (3 Bft) 95,74 %
30.04.2023 11:48 16,6 C 20,6 C 13,3 C 67 % 1023,2 hPa 0,0 l/m 2 min 0 min 809 W/m 9,7 km/h (2 Bft) 97,87 %
30.04.2023 11:50 16,6 C 20,6 C 12,8 C 66 % 1023,2 hPa 0,0 l/m 2 min 0 min 815 W/m 9,7 km/h (2 Bft) 97,87 %
30.04.2023 11:52 16,6 C 21,7 C 13,3 C 66 % 1023,2 hPa 0,0 l/m 2 min 0 min 819 W/m 6,4 km/h (2 Bft) 97,87 %
30.04.2023 11:54 16,7 C 21,7 C 14,4 C 67 % 1023,2 hPa 0,0 l/m 2 min 0 min 828 W/m 9,7 km/h (2 Bft) 97,83 %
30.04.2023 11:56 16,8 C 21,1 C 14,4 C 66 % 1023,2 hPa 0,0 l/m 2 min 0 min 828 W/m 22,5 km/h (4 Bft) 97,87 %
30.04.2023 11:58 16,9 C 22,2 C 14,4 C 66 % 1023,2 hPa 0,0 l/m 2 min 0 min 827 W/m 9,7 km/h (2 Bft) 97,87 %
30.04.2023 12:00 17,1 C 23,3 C 13,9 C 65 % 1023,2 hPa 0,0 l/m 2 min 0 min 830 W/m 16,1 km/h (3 Bft) 97,87 %
30.04.2023 12:02 17,1 C 24,4 C 13,9 C 65 % 1023,2 hPa 0,0 l/m 2 min 0 min 827 W/m 12,9 km/h (3 Bft) 97,87 %
30.04.2023 12:04 17,1 C 24,4 C 14,4 C 64 % 1023,2 hPa 0,0 l/m 2 min 0 min 829 W/m 12,9 km/h (3 Bft) 97,87 %
30.04.2023 12:07 17,2 C 26,1 C 15,0 C 65 % 1023,2 hPa 0,0 l/m 3 min 0 min 838 W/m 12,9 km/h (3 Bft) 97,22 %
30.04.2023 12:10 17,3 C 26,1 C 15,0 C 64 % 1023,2 hPa 0,0 l/m 3 min 0 min 835 W/m 12,9 km/h (3 Bft) 97,34 %
30.04.2023 12:12 17,4 C 26,1 C 15,6 C 65 % 1023,1 hPa 0,0 l/m 2 min 0 min 836 W/m 9,7 km/h (2 Bft) 98,44 %
30.04.2023 12:14 17,6 C 27,2 C 16,7 C 64 % 1023,2 hPa 0,0 l/m 2 min 0 min 834 W/m 9,7 km/h (2 Bft) 97,87 %
30.04.2023 12:16 17,7 C 27,8 C 17,2 C 65 % 1023,1 hPa 0,0 l/m 2 min 0 min 841 W/m 12,9 km/h (3 Bft) 95,65 %
30.04.2023 12:18 17,8 C 27,2 C 17,8 C 65 % 1023,1 hPa 0,0 l/m 2 min 0 min 832 W/m 9,7 km/h (2 Bft) 97,87 %
30.04.2023 12:20 17,8 C 27,8 C 18,3 C 65 % 1023,1 hPa 0,0 l/m 2 min 0 min 841 W/m 16,1 km/h (3 Bft) 95,74 %
30.04.2023 12:22 17,9 C 26,1 C 18,9 C 64 % 1023,1 hPa 0,0 l/m 2 min 0 min 836 W/m 16,1 km/h (3 Bft) 97,87 %
30.04.2023 12:24 17,9 C 25,0 C 19,4 C 63 % 1023,0 hPa 0,0 l/m 2 min 0 min 859 W/m 9,7 km/h (2 Bft) 97,87 %
30.04.2023 12:26 18,1 C 26,7 C 20,0 C 64 % 1023,0 hPa 0,0 l/m 2 min 0 min 862 W/m 9,7 km/h (2 Bft) 97,87 %
30.04.2023 12:28 18,1 C 26,7 C 19,4 C 64 % 1023,0 hPa 0,0 l/m 2 min 0 min 842 W/m 12,9 km/h (3 Bft) 95,74 %
30.04.2023 12:30 18,2 C 26,7 C 20,0 C 63 % 1023,0 hPa 0,0 l/m 2 min 0 min 861 W/m 12,9 km/h (3 Bft) 97,83 %
30.04.2023 12:32 18,2 C 27,8 C 19,4 C 63 % 1023,0 hPa 0,0 l/m 2 min 0 min 868 W/m 16,1 km/h (3 Bft) 97,87 %
30.04.2023 12:34 18,3 C 27,8 C 19,4 C 64 % 1023,0 hPa 0,0 l/m 2 min 0 min 855 W/m 16,1 km/h (3 Bft) 97,87 %
30.04.2023 12:36 18,3 C 27,2 C 18,9 C 62 % 1023,0 hPa 0,0 l/m 2 min 0 min 848 W/m 12,9 km/h (3 Bft) 95,74 %
30.04.2023 12:38 18,3 C 26,1 C 20,0 C 62 % 1023,0 hPa 0,0 l/m 2 min 0 min 873 W/m 16,1 km/h (3 Bft) 97,87 %
30.04.2023 12:40 18,3 C 26,7 C 20,0 C 62 % 1023,0 hPa 0,0 l/m 2 min 0 min 878 W/m 12,9 km/h (3 Bft) 97,87 %
30.04.2023 12:42 18,3 C 25,6 C 20,6 C 61 % 1022,9 hPa 0,0 l/m 2 min 0 min 898 W/m 16,1 km/h (3 Bft) 97,83 %
30.04.2023 12:44 18,3 C 26,7 C 21,1 C 62 % 1022,9 hPa 0,0 l/m 2 min 0 min 934 W/m 6,4 km/h (2 Bft) 97,87 %
30.04.2023 12:46 18,4 C 27,2 C 20,6 C 63 % 1022,9 hPa 0,0 l/m 2 min 0 min 978 W/m 16,1 km/h (3 Bft) 97,87 %
30.04.2023 12:48 18,5 C 27,2 C 21,1 C 62 % 1022,8 hPa 0,0 l/m 2 min 0 min 990 W/m 12,9 km/h (3 Bft) 97,87 %
30.04.2023 12:50 18,7 C 27,8 C 20,0 C 62 % 1022,8 hPa 0,0 l/m 2 min 0 min 964 W/m 12,9 km/h (3 Bft) 95,74 %
30.04.2023 12:52 18,8 C 28,9 C 17,8 C 62 % 1022,7 hPa 0,0 l/m 2 min 0 min 921 W/m 16,1 km/h (3 Bft) 95,74 %
30.04.2023 12:54 18,8 C 27,8 C 16,7 C 61 % 1022,7 hPa 0,0 l/m 2 min 0 min 909 W/m 16,1 km/h (3 Bft) 93,62 %
30.04.2023 12:56 18,8 C 27,8 C 15,6 C 62 % 1022,6 hPa 0,0 l/m 2 min 0 min 866 W/m 12,9 km/h (3 Bft) 91,30 %
30.04.2023 12:58 18,9 C 28,3 C 15,6 C 62 % 1022,6 hPa 0,0 l/m 2 min 0 min 879 W/m 9,7 km/h (2 Bft) 93,62 %
30.04.2023 13:00 18,9 C 28,3 C 15,0 C 60 % 1022,7 hPa 0,0 l/m 2 min 0 min 884 W/m 12,9 km/h (3 Bft) 96,30 %
30.04.2023 13:02 18,8 C 27,2 C 15,0 C 59 % 1022,6 hPa 0,0 l/m 2 min 0 min 913 W/m 19,3 km/h (3 Bft) 91,49 %
30.04.2023 13:04 18,9 C 27,2 C 15,0 C 60 % 1022,6 hPa 0,0 l/m 2 min 0 min 939 W/m 6,4 km/h (2 Bft) 93,62 %
30.04.2023 13:06 19,1 C 26,1 C 15,0 C 60 % 1022,5 hPa 0,0 l/m 2 min 0 min 976 W/m 12,9 km/h (3 Bft) 93,62 %
30.04.2023 13:08 19,0 C 23,9 C 14,4 C 60 % 1022,5 hPa 0,0 l/m 2 min 0 min 647 W/m 12,9 km/h (3 Bft) 91,30 %
30.04.2023 13:10 18,8 C 25,0 C 13,9 C 59 % 1022,5 hPa 0,0 l/m 0 min 0 min 215 W/m 9,7 km/h (2 Bft) 93,62 %
30.04.2023 13:12 18,8 C 26,1 C 13,9 C 59 % 1022,4 hPa 0,0 l/m 2 min 0 min 918 W/m 16,1 km/h (3 Bft) 93,62 %
30.04.2023 13:14 18,8 C 26,7 C 14,4 C 60 % 1022,5 hPa 0,0 l/m 2 min 0 min 888 W/m 22,5 km/h (4 Bft) 93,62 %
30.04.2023 13:16 18,8 C 27,8 C 14,4 C 59 % 1022,4 hPa 0,0 l/m 2 min 0 min 900 W/m 16,1 km/h (3 Bft) 91,49 %
30.04.2023 13:18 18,8 C 27,2 C 14,4 C 58 % 1022,4 hPa 0,0 l/m 2 min 0 min 895 W/m 9,7 km/h (2 Bft) 93,62 %
30.04.2023 13:20 18,8 C 27,2 C 14,4 C 60 % 1022,4 hPa 0,0 l/m 2 min 0 min 890 W/m 9,7 km/h (2 Bft) 91,49 %
30.04.2023 13:22 18,9 C 27,8 C 14,4 C 59 % 1022,4 hPa 0,0 l/m 2 min 0 min 916 W/m 12,9 km/h (3 Bft) 93,48 %
30.04.2023 13:24 19,0 C 27,2 C 14,4 C 60 % 1022,3 hPa 0,0 l/m 2 min 0 min 942 W/m 12,9 km/h (3 Bft) 93,62 %
30.04.2023 13:26 19,0 C 27,8 C 14,4 C 60 % 1022,4 hPa 0,0 l/m 2 min 0 min 942 W/m 16,1 km/h (3 Bft) 91,49 %
30.04.2023 13:28 19,0 C 28,3 C 14,4 C 59 % 1022,4 hPa 0,0 l/m 2 min 0 min 909 W/m 9,7 km/h (2 Bft) 97,87 %
30.04.2023 13:30 19,1 C 27,8 C 15,0 C 58 % 1022,4 hPa 0,0 l/m 2 min 0 min 891 W/m 12,9 km/h (3 Bft) 93,62 %
30.04.2023 13:32 19,1 C 26,7 C 15,0 C 59 % 1022,3 hPa 0,0 l/m 2 min 0 min 884 W/m 16,1 km/h (3 Bft) 95,74 %
30.04.2023 13:34 19,2 C 27,2 C 16,1 C 59 % 1022,4 hPa 0,0 l/m 2 min 0 min 930 W/m 16,1 km/h (3 Bft) 95,65 %
30.04.2023 13:36 19,2 C 24,4 C 16,1 C 58 % 1022,2 hPa 0,0 l/m 2 min 0 min 800 W/m 9,7 km/h (2 Bft) 97,56 %
30.04.2023 13:38 19,2 C 24,4 C 16,1 C 57 % 1022,3 hPa 0,0 l/m 0 min 0 min 258 W/m 16,1 km/h (3 Bft) 97,87 %
30.04.2023 13:40 19,2 C 26,7 C 17,2 C 58 % 1022,3 hPa 0,0 l/m 2 min 0 min 669 W/m 12,9 km/h (3 Bft) 97,87 %
30.04.2023 13:42 19,2 C 27,8 C 17,2 C 58 % 1022,3 hPa 0,0 l/m 2 min 0 min 1000 W/m 25,7 km/h (4 Bft) 100,00 %
30.04.2023 13:44 19,2 C 27,8 C 17,8 C 57 % 1022,3 hPa 0,0 l/m 2 min 0 min 959 W/m 12,9 km/h (3 Bft) 97,87 %
30.04.2023 13:46 19,4 C 28,3 C 17,8 C 58 % 1022,2 hPa 0,0 l/m 2 min 0 min 1008 W/m 9,7 km/h (2 Bft) 100,00 %
30.04.2023 13:48 19,6 C 28,9 C 17,2 C 58 % 1022,2 hPa 0,0 l/m 2 min 0 min 1012 W/m 12,9 km/h (3 Bft) 100,00 %
30.04.2023 13:50 19,7 C 29,4 C 16,7 C 58 % 1022,2 hPa 0,0 l/m 2 min 0 min 1026 W/m 12,9 km/h (3 Bft) 100,00 %
30.04.2023 13:52 19,7 C 25,6 C 16,1 C 57 % 1022,2 hPa 0,0 l/m 2 min 0 min 594 W/m 22,5 km/h (4 Bft) 98,11 %
30.04.2023 13:54 19,7 C 26,1 C 16,1 C 57 % 1022,2 hPa 0,0 l/m 2 min 0 min 811 W/m 6,4 km/h (2 Bft) 100,00 %
30.04.2023 13:56 19,7 C 23,9 C 15,6 C 57 % 1022,2 hPa 0,0 l/m 2 min 0 min 405 W/m 19,3 km/h (3 Bft) 100,00 %
30.04.2023 13:58 19,6 C 23,3 C 15,6 C 57 % 1022,2 hPa 0,0 l/m 0 min 0 min 330 W/m 6,4 km/h (2 Bft) 97,87 %
30.04.2023 14:00 19,6 C 24,4 C 15,0 C 57 % 1022,1 hPa 0,0 l/m 0 min 0 min 338 W/m 19,3 km/h (3 Bft) 100,00 %
30.04.2023 14:02 19,5 C 25,0 C 15,0 C 57 % 1022,1 hPa 0,0 l/m 2 min 0 min 936 W/m 12,9 km/h (3 Bft) 97,83 %
30.04.2023 14:04 19,6 C 26,7 C 15,0 C 58 % 1022,0 hPa 0,0 l/m 2 min 0 min 991 W/m 12,9 km/h (3 Bft) 100,00 %
30.04.2023 14:06 19,7 C 27,2 C 15,0 C 58 % 1022,0 hPa 0,0 l/m 2 min 0 min 952 W/m 19,3 km/h (3 Bft) 100,00 %
30.04.2023 14:08 19,7 C 27,2 C 15,0 C 57 % 1022,0 hPa 0,0 l/m 2 min 0 min 954 W/m 12,9 km/h (3 Bft) 100,00 %
30.04.2023 14:10 19,8 C 27,2 C 15,0 C 57 % 1022,0 hPa 0,0 l/m 2 min 0 min 972 W/m 25,7 km/h (4 Bft) 100,00 %
30.04.2023 14:12 19,7 C 25,0 C 15,0 C 56 % 1022,0 hPa 0,0 l/m 2 min 0 min 768 W/m 19,3 km/h (3 Bft) 100,00 %
30.04.2023 14:14 19,7 C 26,1 C 15,0 C 57 % 1021,9 hPa 0,0 l/m 2 min 0 min 636 W/m 19,3 km/h (3 Bft) 100,00 %
30.04.2023 14:16 19,7 C 27,8 C 15,0 C 59 % 1021,9 hPa 0,0 l/m 2 min 0 min 997 W/m 9,7 km/h (2 Bft) 95,65 %
30.04.2023 14:18 19,8 C 26,7 C 15,6 C 59 % 1021,9 hPa 0,0 l/m 2 min 0 min 992 W/m 9,7 km/h (2 Bft) 100,00 %
30.04.2023 14:20 19,7 C 25,6 C 15,0 C 57 % 1021,9 hPa 0,0 l/m 2 min 0 min 990 W/m 12,9 km/h (3 Bft) 100,00 %
30.04.2023 14:22 19,6 C 27,2 C 15,0 C 58 % 1021,9 hPa 0,0 l/m 2 min 0 min 988 W/m 9,7 km/h (2 Bft) 100,00 %
30.04.2023 14:24 19,6 C 25,0 C 15,0 C 58 % 1021,8 hPa 0,0 l/m 2 min 0 min 963 W/m 6,4 km/h (2 Bft) 97,87 %
30.04.2023 14:26 19,5 C 23,9 C 14,4 C 57 % 1021,8 hPa 0,0 l/m 0 min 0 min 274 W/m 9,7 km/h (2 Bft) 100,00 %
30.04.2023 14:28 19,4 C 25,0 C 14,4 C 56 % 1021,8 hPa 0,0 l/m 2 min 0 min 653 W/m 12,9 km/h (3 Bft) 100,00 %
30.04.2023 14:30 19,5 C 27,2 C 15,0 C 58 % 1021,8 hPa 0,0 l/m 2 min 0 min 925 W/m 9,7 km/h (2 Bft) 97,87 %
30.04.2023 14:32 19,7 C 28,3 C 15,0 C 58 % 1021,8 hPa 0,0 l/m 2 min 0 min 934 W/m 16,1 km/h (3 Bft) 100,00 %
30.04.2023 14:34 19,7 C 26,1 C 15,0 C 56 % 1021,7 hPa 0,0 l/m 2 min 0 min 887 W/m 16,1 km/h (3 Bft) 100,00 %
30.04.2023 14:36 19,7 C 25,0 C 15,0 C 56 % 1021,8 hPa 0,0 l/m 2 min 0 min 874 W/m 12,9 km/h (3 Bft) 100,00 %
30.04.2023 14:38 19,7 C 24,4 C 15,0 C 57 % 1021,8 hPa 0,0 l/m 2 min 0 min 830 W/m 12,9 km/h (3 Bft) 100,00 %
30.04.2023 14:40 19,6 C 23,3 C 14,4 C 56 % 1021,8 hPa 0,0 l/m 2 min 0 min 696 W/m 16,1 km/h (3 Bft) 97,87 %
30.04.2023 14:42 19,5 C 23,3 C 14,4 C 57 % 1021,7 hPa 0,0 l/m 2 min 0 min 417 W/m 9,7 km/h (2 Bft) 100,00 %
30.04.2023 14:44 19,4 C 23,9 C 14,4 C 57 % 1021,7 hPa 0,0 l/m 2 min 0 min 462 W/m 16,1 km/h (3 Bft) 97,87 %
30.04.2023 14:46 19,3 C 25,0 C 14,4 C 57 % 1021,7 hPa 0,0 l/m 2 min 0 min 837 W/m 16,1 km/h (3 Bft) 100,00 %
30.04.2023 14:48 19,2 C 25,6 C 14,4 C 57 % 1021,6 hPa 0,0 l/m 2 min 0 min 834 W/m 16,1 km/h (3 Bft) 100,00 %
30.04.2023 14:50 19,3 C 26,7 C 15,0 C 58 % 1021,7 hPa 0,0 l/m 2 min 0 min 887 W/m 16,1 km/h (3 Bft) 97,14 %
30.04.2023 14:52 19,4 C 26,7 C 15,0 C 58 % 1021,6 hPa 0,0 l/m 2 min 0 min 909 W/m 9,7 km/h (2 Bft) 98,31 %
30.04.2023 14:54 19,5 C 27,2 C 15,0 C 59 % 1021,6 hPa 0,0 l/m 2 min 0 min 909 W/m 9,7 km/h (2 Bft) 97,87 %
30.04.2023 14:56 19,6 C 26,7 C 15,0 C 57 % 1021,6 hPa 0,0 l/m 2 min 0 min 907 W/m 16,1 km/h (3 Bft) 97,83 %
30.04.2023 14:58 19,6 C 27,2 C 15,0 C 58 % 1021,6 hPa 0,0 l/m 2 min 0 min 896 W/m 12,9 km/h (3 Bft) 100,00 %
30.04.2023 15:00 19,7 C 27,2 C 15,0 C 56 % 1021,5 hPa 0,0 l/m 2 min 0 min 877 W/m 9,7 km/h (2 Bft) 97,87 %
30.04.2023 15:02 19,8 C 26,1 C 15,0 C 56 % 1021,5 hPa 0,0 l/m 2 min 0 min 534 W/m 16,1 km/h (3 Bft) 95,74 %
30.04.2023 15:04 19,7 C 23,9 C 15,0 C 56 % 1021,5 hPa 0,0 l/m 0 min 0 min 321 W/m 12,9 km/h (3 Bft) 97,87 %
30.04.2023 15:06 19,7 C 25,0 C 15,0 C 56 % 1021,5 hPa 0,0 l/m 0 min 0 min 289 W/m 16,1 km/h (3 Bft) 98,31 %
30.04.2023 15:08 19,7 C 26,1 C 15,0 C 56 % 1021,5 hPa 0,0 l/m 2 min 0 min 909 W/m 6,4 km/h (2 Bft) 97,22 %
30.04.2023 15:10 19,7 C 25,6 C 15,0 C 55 % 1021,5 hPa 0,0 l/m 2 min 0 min 907 W/m 9,7 km/h (2 Bft) 96,15 %
30.04.2023 15:12 19,6 C 23,9 C 14,4 C 56 % 1021,5 hPa 0,0 l/m 2 min 0 min 907 W/m 12,9 km/h (3 Bft) 95,65 %
30.04.2023 15:14 19,6 C 24,4 C 14,4 C 55 % 1021,4 hPa 0,0 l/m 2 min 0 min 885 W/m 16,1 km/h (3 Bft) 97,87 %
30.04.2023 15:16 19,5 C 25,0 C 14,4 C 57 % 1021,3 hPa 0,0 l/m 2 min 0 min 855 W/m 16,1 km/h (3 Bft) 97,87 %
30.04.2023 15:18 19,6 C 26,1 C 15,0 C 57 % 1021,4 hPa 0,0 l/m 2 min 0 min 834 W/m 16,1 km/h (3 Bft) 97,87 %
30.04.2023 15:20 19,6 C 25,6 C 15,0 C 57 % 1021,3 hPa 0,0 l/m 2 min 0 min 712 W/m 16,1 km/h (3 Bft) 95,74 %
30.04.2023 15:22 19,5 C 23,9 C 14,4 C 55 % 1021,3 hPa 0,0 l/m 0 min 0 min 209 W/m 9,7 km/h (2 Bft) 97,87 %
30.04.2023 15:24 19,4 C 24,4 C 14,4 C 56 % 1021,4 hPa 0,0 l/m 2 min 0 min 464 W/m 16,1 km/h (3 Bft) 97,87 %
30.04.2023 15:26 19,4 C 25,0 C 14,4 C 56 % 1021,3 hPa 0,0 l/m 2 min 0 min 797 W/m 6,4 km/h (2 Bft) 97,83 %
30.04.2023 15:28 19,5 C 25,6 C 14,4 C 56 % 1021,3 hPa 0,0 l/m 2 min 0 min 824 W/m 16,1 km/h (3 Bft) 100,00 %
30.04.2023 15:30 19,6 C 25,6 C 15,0 C 56 % 1021,3 hPa 0,0 l/m 2 min 0 min 818 W/m 12,9 km/h (3 Bft) 100,00 %
30.04.2023 15:32 19,6 C 24,4 C 15,0 C 56 % 1021,3 hPa 0,0 l/m 2 min 0 min 805 W/m 19,3 km/h (3 Bft) 100,00 %
30.04.2023 15:34 19,6 C 22,8 C 14,4 C 55 % 1021,1 hPa 0,0 l/m 2 min 0 min 357 W/m 12,9 km/h (3 Bft) 97,87 %
30.04.2023 15:36 19,4 C 21,7 C 14,4 C 56 % 1021,2 hPa 0,0 l/m 0 min 0 min 204 W/m 12,9 km/h (3 Bft) 97,87 %
30.04.2023 15:38 19,3 C 21,7 C 14,4 C 55 % 1021,2 hPa 0,0 l/m 0 min 0 min 209 W/m 19,3 km/h (3 Bft) 97,83 %
30.04.2023 15:40 19,3 C 23,3 C 14,4 C 57 % 1021,2 hPa 0,0 l/m 2 min 0 min 645 W/m 12,9 km/h (3 Bft) 95,74 %
30.04.2023 15:42 19,3 C 23,9 C 15,0 C 57 % 1021,2 hPa 0,0 l/m 2 min 0 min 712 W/m 9,7 km/h (2 Bft) 95,74 %
30.04.2023 15:44 19,4 C 23,9 C 15,0 C 55 % 1021,1 hPa 0,0 l/m 2 min 0 min 739 W/m 9,7 km/h (2 Bft) 97,87 %
30.04.2023 15:46 19,4 C 23,9 C 15,0 C 56 % 1021,1 hPa 0,0 l/m 2 min 0 min 580 W/m 12,9 km/h (3 Bft) 97,87 %
30.04.2023 15:48 19,5 C 23,3 C 15,0 C 56 % 1021,1 hPa 0,0 l/m 2 min 0 min 421 W/m 12,9 km/h (3 Bft) 97,87 %
30.04.2023 15:50 19,4 C 22,8 C 14,4 C 55 % 1021,1 hPa 0,0 l/m 2 min 0 min 624 W/m 22,5 km/h (4 Bft) 97,87 %
30.04.2023 15:52 19,3 C 21,7 C 14,4 C 55 % 1021,0 hPa 0,0 l/m 0 min 0 min 308 W/m 16,1 km/h (3 Bft) 95,65 %
30.04.2023 15:54 19,1 C 21,7 C 14,4 C 55 % 1021,0 hPa 0,0 l/m 0 min 0 min 237 W/m 16,1 km/h (3 Bft) 95,74 %
30.04.2023 15:56 19,1 C 23,3 C 14,4 C 56 % 1021,0 hPa 0,0 l/m 2 min 0 min 690 W/m 9,7 km/h (2 Bft) 95,74 %
30.04.2023 15:58 19,1 C 23,9 C 14,4 C 57 % 1021,0 hPa 0,0 l/m 2 min 0 min 713 W/m 19,3 km/h (3 Bft) 97,87 %
30.04.2023 16:00 19,1 C 24,4 C 15,0 C 56 % 1021,0 hPa 0,0 l/m 2 min 0 min 679 W/m 16,1 km/h (3 Bft) 97,87 %
30.04.2023 16:02 19,2 C 23,9 C 15,0 C 57 % 1021,0 hPa 0,0 l/m 2 min 0 min 701 W/m 22,5 km/h (4 Bft) 95,74 %
30.04.2023 16:04 19,2 C 24,4 C 15,0 C 56 % 1021,0 hPa 0,0 l/m 2 min 0 min 735 W/m 16,1 km/h (3 Bft) 97,83 %
30.04.2023 16:06 19,4 C 24,4 C 15,0 C 57 % 1020,9 hPa 0,0 l/m 2 min 0 min 707 W/m 12,9 km/h (3 Bft) 95,74 %
30.04.2023 16:08 19,5 C 25,0 C 15,6 C 57 % 1021,0 hPa 0,0 l/m 2 min 0 min 720 W/m 12,9 km/h (3 Bft) 95,74 %
30.04.2023 16:10 19,6 C 25,6 C 15,6 C 55 % 1020,9 hPa 0,0 l/m 2 min 0 min 727 W/m 12,9 km/h (3 Bft) 95,74 %
30.04.2023 16:12 19,6 C 25,6 C 15,6 C 55 % 1020,9 hPa 0,0 l/m 2 min 0 min 717 W/m 12,9 km/h (3 Bft) 95,74 %
30.04.2023 16:14 19,7 C 25,6 C 15,6 C 54 % 1020,9 hPa 0,0 l/m 2 min 0 min 733 W/m 16,1 km/h (3 Bft) 93,62 %
30.04.2023 16:16 19,7 C 24,4 C 15,0 C 54 % 1020,8 hPa 0,0 l/m 2 min 0 min 727 W/m 16,1 km/h (3 Bft) 95,74 %
30.04.2023 16:18 19,7 C 25,0 C 15,6 C 54 % 1020,8 hPa 0,0 l/m 2 min 0 min 717 W/m 12,9 km/h (3 Bft) 97,83 %
30.04.2023 16:20 19,8 C 24,4 C 15,6 C 55 % 1020,8 hPa 0,0 l/m 2 min 0 min 702 W/m 12,9 km/h (3 Bft) 95,74 %
30.04.2023 16:22 19,8 C 23,9 C 15,6 C 55 % 1020,8 hPa 0,0 l/m 2 min 0 min 703 W/m 12,9 km/h (3 Bft) 97,62 %
30.04.2023 16:24 19,9 C 24,4 C 15,6 C 55 % 1020,8 hPa 0,0 l/m 2 min 0 min 707 W/m 16,1 km/h (3 Bft) 96,00 %
30.04.2023 16:26 19,9 C 25,0 C 15,6 C 54 % 1020,8 hPa 0,0 l/m 2 min 0 min 700 W/m 12,9 km/h (3 Bft) 97,96 %
30.04.2023 16:28 19,9 C 23,9 C 15,6 C 54 % 1020,7 hPa 0,0 l/m 2 min 0 min 721 W/m 12,9 km/h (3 Bft) 95,74 %
30.04.2023 16:30 19,8 C 25,0 C 15,6 C 54 % 1020,7 hPa 0,0 l/m 2 min 0 min 719 W/m 16,1 km/h (3 Bft) 95,24 %
30.04.2023 16:32 19,8 C 25,6 C 15,6 C 55 % 1020,7 hPa 0,0 l/m 2 min 0 min 697 W/m 9,7 km/h (2 Bft) 97,83 %
30.04.2023 16:34 19,8 C 25,0 C 15,6 C 54 % 1020,6 hPa 0,0 l/m 2 min 0 min 670 W/m 12,9 km/h (3 Bft) 97,87 %
30.04.2023 16:36 19,9 C 25,0 C 15,6 C 54 % 1020,6 hPa 0,0 l/m 2 min 0 min 650 W/m 9,7 km/h (2 Bft) 97,87 %
30.04.2023 16:38 19,9 C 25,0 C 15,6 C 54 % 1020,6 hPa 0,0 l/m 2 min 0 min 614 W/m 9,7 km/h (2 Bft) 93,62 %
30.04.2023 16:40 19,9 C 24,4 C 15,6 C 54 % 1020,6 hPa 0,0 l/m 2 min 0 min 566 W/m 19,3 km/h (3 Bft) 97,87 %
30.04.2023 16:42 20,0 C 25,0 C 16,1 C 54 % 1020,6 hPa 0,0 l/m 2 min 0 min 539 W/m 9,7 km/h (2 Bft) 97,87 %
30.04.2023 16:44 20,0 C 25,0 C 16,1 C 55 % 1020,6 hPa 0,0 l/m 2 min 0 min 570 W/m 19,3 km/h (3 Bft) 97,87 %
30.04.2023 16:46 20,0 C 25,0 C 16,1 C 54 % 1020,6 hPa 0,0 l/m 2 min 0 min 572 W/m 9,7 km/h (2 Bft) 97,83 %
30.04.2023 16:48 20,0 C 25,6 C 16,1 C 54 % 1020,6 hPa 0,0 l/m 2 min 0 min 586 W/m 16,1 km/h (3 Bft) 97,87 %
30.04.2023 16:50 19,9 C 25,0 C 16,1 C 54 % 1020,6 hPa 0,0 l/m 2 min 0 min 603 W/m 12,9 km/h (3 Bft) 97,87 %
30.04.2023 16:52 19,8 C 23,9 C 16,1 C 53 % 1020,5 hPa 0,0 l/m 2 min 0 min 584 W/m 16,1 km/h (3 Bft) 97,87 %
30.04.2023 16:54 19,8 C 24,4 C 16,1 C 54 % 1020,6 hPa 0,0 l/m 2 min 0 min 580 W/m 19,3 km/h (3 Bft) 97,87 %
30.04.2023 16:56 19,8 C 24,4 C 15,6 C 53 % 1020,5 hPa 0,0 l/m 2 min 0 min 629 W/m 6,4 km/h (2 Bft) 95,74 %
30.04.2023 16:58 19,8 C 23,9 C 15,6 C 52 % 1020,5 hPa 0,0 l/m 2 min 0 min 621 W/m 12,9 km/h (3 Bft) 95,65 %
30.04.2023 17:00 19,9 C 23,9 C 16,1 C 54 % 1020,5 hPa 0,0 l/m 2 min 0 min 584 W/m 16,1 km/h (3 Bft) 97,87 %
30.04.2023 17:02 19,9 C 24,4 C 16,1 C 53 % 1020,5 hPa 0,0 l/m 2 min 0 min 572 W/m 16,1 km/h (3 Bft) 97,87 %
30.04.2023 17:04 19,9 C 23,9 C 16,1 C 53 % 1020,4 hPa 0,0 l/m 2 min 0 min 577 W/m 16,1 km/h (3 Bft) 100,00 %
30.04.2023 17:06 19,9 C 25,0 C 16,7 C 54 % 1020,4 hPa 0,0 l/m 2 min 0 min 558 W/m 12,9 km/h (3 Bft) 96,61 %
30.04.2023 17:08 19,9 C 24,4 C 16,1 C 53 % 1020,4 hPa 0,0 l/m 2 min 0 min 505 W/m 12,9 km/h (3 Bft) 100,00 %
30.04.2023 17:10 19,9 C 25,0 C 16,1 C 53 % 1020,3 hPa 0,0 l/m 2 min 0 min 505 W/m 12,9 km/h (3 Bft) 97,87 %
30.04.2023 17:12 19,8 C 23,9 C 16,1 C 53 % 1020,3 hPa 0,0 l/m 2 min 0 min 544 W/m 25,7 km/h (4 Bft) 97,87 %
30.04.2023 17:14 19,7 C 23,9 C 16,1 C 53 % 1020,3 hPa 0,0 l/m 2 min 0 min 525 W/m 9,7 km/h (2 Bft) 95,65 %
30.04.2023 17:16 19,7 C 23,9 C 16,1 C 53 % 1020,3 hPa 0,0 l/m 2 min 0 min 493 W/m 16,1 km/h (3 Bft) 97,87 %
30.04.2023 17:18 19,7 C 22,8 C 15,6 C 53 % 1020,3 hPa 0,0 l/m 2 min 0 min 469 W/m 16,1 km/h (3 Bft) 97,87 %
30.04.2023 17:20 19,7 C 23,3 C 16,1 C 55 % 1020,2 hPa 0,0 l/m 2 min 0 min 456 W/m 12,9 km/h (3 Bft) 97,87 %
30.04.2023 17:22 19,7 C 22,8 C 16,1 C 54 % 1020,2 hPa 0,0 l/m 2 min 0 min 520 W/m 12,9 km/h (3 Bft) 97,56 %
30.04.2023 17:24 19,7 C 22,8 C 16,1 C 53 % 1020,2 hPa 0,0 l/m 2 min 0 min 536 W/m 29,0 km/h (5 Bft) 97,87 %
30.04.2023 17:26 19,6 C 23,3 C 16,1 C 53 % 1020,1 hPa 0,0 l/m 2 min 0 min 536 W/m 12,9 km/h (3 Bft) 97,87 %
30.04.2023 17:28 19,7 C 23,3 C 16,1 C 54 % 1020,1 hPa 0,0 l/m 2 min 0 min 479 W/m 12,9 km/h (3 Bft) 97,83 %
30.04.2023 17:30 19,7 C 23,3 C 16,1 C 54 % 1020,1 hPa 0,0 l/m 2 min 0 min 450 W/m 16,1 km/h (3 Bft) 97,87 %
30.04.2023 17:32 19,8 C 23,9 C 16,1 C 54 % 1020,1 hPa 0,0 l/m 2 min 0 min 491 W/m 12,9 km/h (3 Bft) 97,87 %
30.04.2023 17:34 19,9 C 24,4 C 16,7 C 55 % 1020,0 hPa 0,0 l/m 2 min 0 min 488 W/m 9,7 km/h (2 Bft) 97,87 %
30.04.2023 17:36 19,9 C 25,0 C 16,7 C 54 % 1020,0 hPa 0,0 l/m 2 min 0 min 496 W/m 12,9 km/h (3 Bft) 97,87 %
30.04.2023 17:38 19,9 C 25,0 C 16,7 C 55 % 1020,0 hPa 0,0 l/m 2 min 0 min 529 W/m 9,7 km/h (2 Bft) 98,11 %
30.04.2023 17:40 19,9 C 25,6 C 17,2 C 54 % 1020,0 hPa 0,0 l/m 2 min 0 min 500 W/m 9,7 km/h (2 Bft) 95,65 %
30.04.2023 17:42 20,0 C 25,0 C 17,2 C 54 % 1020,0 hPa 0,0 l/m 2 min 0 min 453 W/m 16,1 km/h (3 Bft) 97,87 %
30.04.2023 17:44 20,0 C 25,6 C 16,7 C 53 % 1020,0 hPa 0,0 l/m 2 min 0 min 469 W/m 9,7 km/h (2 Bft) 100,00 %
30.04.2023 17:46 20,0 C 25,0 C 16,7 C 54 % 1019,9 hPa 0,0 l/m 2 min 0 min 473 W/m 16,1 km/h (3 Bft) 100,00 %
30.04.2023 17:48 20,0 C 25,0 C 16,7 C 53 % 1019,9 hPa 0,0 l/m 2 min 0 min 429 W/m 12,9 km/h (3 Bft) 100,00 %
30.04.2023 17:50 20,0 C 24,4 C 16,7 C 53 % 1019,9 hPa 0,0 l/m 2 min 0 min 436 W/m 9,7 km/h (2 Bft) 100,00 %
30.04.2023 17:52 19,9 C 23,9 C 16,7 C 53 % 1019,9 hPa 0,0 l/m 2 min 0 min 445 W/m 22,5 km/h (4 Bft) 100,00 %
30.04.2023 17:54 19,9 C 24,4 C 16,7 C 53 % 1019,9 hPa 0,0 l/m 2 min 0 min 460 W/m 16,1 km/h (3 Bft) 100,00 %
30.04.2023 17:56 20,0 C 25,0 C 16,7 C 53 % 1019,9 hPa 0,0 l/m 2 min 0 min 438 W/m 9,7 km/h (2 Bft) 100,00 %
30.04.2023 17:58 20,0 C 25,0 C 16,7 C 53 % 1019,8 hPa 0,0 l/m 2 min 0 min 403 W/m 16,1 km/h (3 Bft) 100,00 %
30.04.2023 18:00 20,0 C 25,0 C 16,7 C 54 % 1019,9 hPa 0,0 l/m 2 min 0 min 437 W/m 12,9 km/h (3 Bft) 100,00 %
30.04.2023 18:02 20,1 C 25,6 C 16,7 C 54 % 1019,8 hPa 0,0 l/m 2 min 0 min 429 W/m 9,7 km/h (2 Bft) 100,00 %
30.04.2023 18:04 20,0 C 25,6 C 16,7 C 54 % 1019,8 hPa 0,0 l/m 2 min 0 min 418 W/m 12,9 km/h (3 Bft) 100,00 %
30.04.2023 18:08 19,9 C 25,0 C 16,7 C 54 % 1019,8 hPa 0,0 l/m 4 min 0 min 362 W/m 16,1 km/h (3 Bft) 98,99 %
30.04.2023 18:10 19,9 C 24,4 C 16,7 C 53 % 1019,8 hPa 0,0 l/m 2 min 0 min 305 W/m 12,9 km/h (3 Bft) 97,87 %
30.04.2023 18:12 19,8 C 24,4 C 16,1 C 55 % 1019,8 hPa 0,0 l/m 2 min 0 min 293 W/m 9,7 km/h (2 Bft) 97,87 %
30.04.2023 18:14 19,8 C 23,9 C 16,1 C 54 % 1019,7 hPa 0,0 l/m 2 min 0 min 266 W/m 12,9 km/h (3 Bft) 97,87 %
30.04.2023 18:16 19,6 C 22,8 C 15,6 C 53 % 1019,7 hPa 0,0 l/m 2 min 0 min 307 W/m 16,1 km/h (3 Bft) 97,56 %
30.04.2023 18:18 19,5 C 23,3 C 16,1 C 54 % 1019,7 hPa 0,0 l/m 2 min 0 min 384 W/m 16,1 km/h (3 Bft) 95,74 %
30.04.2023 18:20 19,4 C 23,9 C 16,1 C 54 % 1019,7 hPa 0,0 l/m 2 min 0 min 377 W/m 16,1 km/h (3 Bft) 98,08 %
30.04.2023 18:22 19,3 C 23,9 C 15,6 C 54 % 1019,7 hPa 0,0 l/m 2 min 0 min 366 W/m 12,9 km/h (3 Bft) 97,87 %
30.04.2023 18:24 19,3 C 23,9 C 15,6 C 55 % 1019,7 hPa 0,0 l/m 2 min 0 min 372 W/m 9,7 km/h (2 Bft) 97,87 %
30.04.2023 18:26 19,3 C 24,4 C 15,6 C 56 % 1019,7 hPa 0,0 l/m 2 min 0 min 374 W/m 12,9 km/h (3 Bft) 97,87 %
30.04.2023 18:28 19,4 C 25,0 C 15,6 C 56 % 1019,7 hPa 0,0 l/m 2 min 0 min 392 W/m 16,1 km/h (3 Bft) 97,87 %
30.04.2023 18:30 19,3 C 25,0 C 15,6 C 56 % 1019,6 hPa 0,0 l/m 2 min 0 min 359 W/m 9,7 km/h (2 Bft) 97,87 %
30.04.2023 18:32 19,3 C 24,4 C 15,0 C 55 % 1019,7 hPa 0,0 l/m 2 min 0 min 326 W/m 12,9 km/h (3 Bft) 95,65 %
30.04.2023 18:34 19,3 C 24,4 C 15,0 C 56 % 1019,7 hPa 0,0 l/m 2 min 0 min 323 W/m 9,7 km/h (2 Bft) 93,62 %
30.04.2023 18:36 19,2 C 23,9 C 15,0 C 56 % 1019,7 hPa 0,0 l/m 2 min 0 min 313 W/m 9,7 km/h (2 Bft) 97,87 %
30.04.2023 18:38 19,1 C 23,9 C 14,4 C 56 % 1019,6 hPa 0,0 l/m 2 min 0 min 309 W/m 19,3 km/h (3 Bft) 97,87 %
30.04.2023 18:40 19,0 C 23,9 C 14,4 C 56 % 1019,6 hPa 0,0 l/m 2 min 0 min 295 W/m 12,9 km/h (3 Bft) 97,87 %
30.04.2023 18:42 18,9 C 22,8 C 14,4 C 56 % 1019,6 hPa 0,0 l/m 2 min 0 min 258 W/m 9,7 km/h (2 Bft) 97,87 %
30.04.2023 18:44 18,8 C 22,2 C 13,9 C 57 % 1019,7 hPa 0,0 l/m 2 min 0 min 200 W/m 12,9 km/h (3 Bft) 97,87 %
30.04.2023 18:46 18,6 C 21,1 C 13,9 C 56 % 1019,6 hPa 0,0 l/m 2 min 0 min 219 W/m 9,7 km/h (2 Bft) 97,87 %
30.04.2023 18:48 18,6 C 20,0 C 13,9 C 56 % 1019,6 hPa 0,0 l/m 2 min 0 min 224 W/m 12,9 km/h (3 Bft) 97,83 %
30.04.2023 18:50 18,4 C 19,4 C 13,9 C 57 % 1019,6 hPa 0,0 l/m 2 min 0 min 199 W/m 12,9 km/h (3 Bft) 95,74 %
30.04.2023 18:52 18,3 C 18,9 C 13,3 C 56 % 1019,6 hPa 0,0 l/m 2 min 0 min 195 W/m 12,9 km/h (3 Bft) 100,00 %
30.04.2023 18:54 18,2 C 18,9 C 13,3 C 58 % 1019,6 hPa 0,0 l/m 2 min 0 min 180 W/m 12,9 km/h (3 Bft) 100,00 %
30.04.2023 18:56 18,1 C 18,3 C 13,3 C 58 % 1019,6 hPa 0,0 l/m 2 min 0 min 192 W/m 9,7 km/h (2 Bft) 97,87 %
30.04.2023 18:58 17,9 C 18,3 C 13,3 C 58 % 1019,6 hPa 0,0 l/m 2 min 0 min 202 W/m 9,7 km/h (2 Bft) 100,00 %
30.04.2023 19:00 17,9 C 18,3 C 13,3 C 58 % 1019,6 hPa 0,0 l/m 2 min 0 min 202 W/m 9,7 km/h (2 Bft) 100,00 %
30.04.2023 19:02 17,8 C 17,8 C 13,3 C 59 % 1019,6 hPa 0,0 l/m 2 min 0 min 171 W/m 9,7 km/h (2 Bft) 100,00 %
30.04.2023 19:04 17,8 C 17,8 C 13,3 C 59 % 1019,5 hPa 0,0 l/m 2 min 0 min 150 W/m 9,7 km/h (2 Bft) 100,00 %
30.04.2023 19:06 17,7 C 17,8 C 13,3 C 59 % 1019,5 hPa 0,0 l/m 0 min 0 min 119 W/m 12,9 km/h (3 Bft) 98,31 %
30.04.2023 19:08 17,6 C 17,2 C 13,3 C 58 % 1019,5 hPa 0,0 l/m 0 min 0 min 107 W/m 12,9 km/h (3 Bft) 100,00 %
30.04.2023 19:10 17,6 C 17,2 C 12,8 C 58 % 1019,5 hPa 0,0 l/m 0 min 0 min 105 W/m 9,7 km/h (2 Bft) 100,00 %
30.04.2023 19:12 17,6 C 17,2 C 13,3 C 59 % 1019,5 hPa 0,0 l/m 0 min 0 min 102 W/m 19,3 km/h (3 Bft) 100,00 %
30.04.2023 19:14 17,5 C 17,2 C 12,8 C 59 % 1019,4 hPa 0,0 l/m 0 min 0 min 101 W/m 16,1 km/h (3 Bft) 97,87 %
30.04.2023 19:16 17,4 C 17,2 C 12,8 C 59 % 1019,4 hPa 0,0 l/m 0 min 0 min 99 W/m 6,4 km/h (2 Bft) 97,83 %
30.04.2023 19:18 17,3 C 17,2 C 12,8 C 59 % 1019,4 hPa 0,0 l/m 0 min 0 min 100 W/m 9,7 km/h (2 Bft) 95,74 %
30.04.2023 19:20 17,3 C 17,2 C 12,8 C 60 % 1019,4 hPa 0,0 l/m 0 min 0 min 97 W/m 9,7 km/h (2 Bft) 95,74 %
30.04.2023 19:22 17,2 C 17,2 C 12,8 C 60 % 1019,3 hPa 0,0 l/m 0 min 0 min 93 W/m 6,4 km/h (2 Bft) 95,74 %
30.04.2023 19:24 17,2 C 16,7 C 12,8 C 61 % 1019,4 hPa 0,0 l/m 0 min 0 min 90 W/m 6,4 km/h (2 Bft) 91,49 %
30.04.2023 19:26 17,1 C 16,7 C 12,8 C 62 % 1019,3 hPa 0,0 l/m 0 min 0 min 85 W/m 12,9 km/h (3 Bft) 93,62 %
30.04.2023 19:28 17,1 C 16,7 C 12,8 C 62 % 1019,3 hPa 0,0 l/m 0 min 0 min 82 W/m 9,7 km/h (2 Bft) 95,65 %
30.04.2023 19:30 17,0 C 16,7 C 12,8 C 63 % 1019,3 hPa 0,0 l/m 0 min 0 min 81 W/m 9,7 km/h (2 Bft) 95,74 %
30.04.2023 19:32 16,9 C 16,7 C 12,2 C 62 % 1019,3 hPa 0,0 l/m 0 min 0 min 79 W/m 6,4 km/h (2 Bft) 93,62 %
30.04.2023 19:34 16,9 C 16,7 C 12,2 C 62 % 1019,3 hPa 0,0 l/m 0 min 0 min 76 W/m 9,7 km/h (2 Bft) 95,74 %
30.04.2023 19:36 16,8 C 16,1 C 12,2 C 63 % 1019,3 hPa 0,0 l/m 0 min 0 min 72 W/m 9,7 km/h (2 Bft) 95,74 %
30.04.2023 19:38 16,8 C 16,1 C 12,2 C 63 % 1019,2 hPa 0,0 l/m 0 min 0 min 70 W/m 6,4 km/h (2 Bft) 95,74 %
30.04.2023 19:40 16,7 C 16,1 C 12,2 C 63 % 1019,2 hPa 0,0 l/m 0 min 0 min 69 W/m 12,9 km/h (3 Bft) 95,74 %
30.04.2023 19:42 16,7 C 16,1 C 12,2 C 63 % 1019,2 hPa 0,0 l/m 0 min 0 min 67 W/m 9,7 km/h (2 Bft) 89,13 %
30.04.2023 19:44 16,6 C 16,1 C 12,2 C 63 % 1019,3 hPa 0,0 l/m 0 min 0 min 65 W/m 12,9 km/h (3 Bft) 95,74 %
30.04.2023 19:46 16,6 C 16,1 C 12,2 C 63 % 1019,3 hPa 0,0 l/m 0 min 0 min 63 W/m 9,7 km/h (2 Bft) 95,74 %
30.04.2023 19:48 16,5 C 15,6 C 11,7 C 63 % 1019,2 hPa 0,0 l/m 0 min 0 min 61 W/m 9,7 km/h (2 Bft) 95,74 %
30.04.2023 19:50 16,4 C 15,6 C 11,7 C 63 % 1019,3 hPa 0,0 l/m 0 min 0 min 59 W/m 6,4 km/h (2 Bft) 95,74 %
30.04.2023 19:52 16,4 C 15,6 C 11,7 C 64 % 1019,3 hPa 0,0 l/m 0 min 0 min 56 W/m 12,9 km/h (3 Bft) 97,87 %
30.04.2023 19:54 16,3 C 15,6 C 11,7 C 64 % 1019,3 hPa 0,0 l/m 0 min 0 min 53 W/m 9,7 km/h (2 Bft) 100,00 %
30.04.2023 19:56 16,3 C 15,6 C 11,7 C 64 % 1019,3 hPa 0,0 l/m 0 min 0 min 51 W/m 9,7 km/h (2 Bft) 100,00 %
30.04.2023 19:58 16,2 C 15,6 C 11,7 C 64 % 1019,3 hPa 0,0 l/m 0 min 0 min 47 W/m 6,4 km/h (2 Bft) 100,00 %
30.04.2023 20:00 16,2 C 15,6 C 11,7 C 64 % 1019,3 hPa 0,0 l/m 0 min 0 min 45 W/m 6,4 km/h (2 Bft) 97,87 %
30.04.2023 20:02 16,1 C 15,6 C 11,7 C 65 % 1019,3 hPa 0,0 l/m 0 min 0 min 42 W/m 6,4 km/h (2 Bft) 100,00 %
30.04.2023 20:04 16,1 C 15,0 C 11,1 C 65 % 1019,3 hPa 0,0 l/m 0 min 0 min 40 W/m 12,9 km/h (3 Bft) 97,87 %
30.04.2023 20:06 16,0 C 15,0 C 11,1 C 65 % 1019,3 hPa 0,0 l/m 0 min 0 min 39 W/m 9,7 km/h (2 Bft) 100,00 %
30.04.2023 20:08 15,9 C 15,0 C 11,1 C 65 % 1019,3 hPa 0,0 l/m 0 min 0 min 36 W/m 6,4 km/h (2 Bft) 100,00 %
30.04.2023 20:10 15,9 C 15,0 C 11,1 C 65 % 1019,2 hPa 0,0 l/m 0 min 0 min 34 W/m 9,7 km/h (2 Bft) 100,00 %
30.04.2023 20:12 15,8 C 15,0 C 11,1 C 65 % 1019,2 hPa 0,0 l/m 0 min 0 min 32 W/m 6,4 km/h (2 Bft) 100,00 %
30.04.2023 20:14 15,7 C 15,0 C 11,1 C 65 % 1019,2 hPa 0,0 l/m 0 min 0 min 31 W/m 9,7 km/h (2 Bft) 100,00 %
30.04.2023 20:16 15,7 C 14,4 C 11,1 C 65 % 1019,2 hPa 0,0 l/m 0 min 0 min 28 W/m 6,4 km/h (2 Bft) 95,74 %
30.04.2023 20:18 15,6 C 14,4 C 11,1 C 65 % 1019,2 hPa 0,0 l/m 0 min 0 min 27 W/m 6,4 km/h (2 Bft) 100,00 %
30.04.2023 20:20 15,6 C 14,4 C 11,1 C 65 % 1019,2 hPa 0,0 l/m 0 min 0 min 26 W/m 6,4 km/h (2 Bft) 100,00 %
30.04.2023 20:22 15,6 C 14,4 C 11,1 C 65 % 1019,2 hPa 0,0 l/m 0 min 0 min 24 W/m 9,7 km/h (2 Bft) 100,00 %
30.04.2023 20:24 15,5 C 14,4 C 11,1 C 65 % 1019,2 hPa 0,0 l/m 0 min 0 min 23 W/m 6,4 km/h (2 Bft) 100,00 %
30.04.2023 20:26 15,4 C 14,4 C 11,1 C 65 % 1019,3 hPa 0,0 l/m 0 min 0 min 21 W/m 9,7 km/h (2 Bft) 100,00 %
30.04.2023 20:28 15,4 C 14,4 C 10,6 C 66 % 1019,2 hPa 0,0 l/m 0 min 0 min 20 W/m 6,4 km/h (2 Bft) 100,00 %
30.04.2023 20:30 15,4 C 14,4 C 10,6 C 66 % 1019,2 hPa 0,0 l/m 0 min 0 min 19 W/m 6,4 km/h (2 Bft) 100,00 %
30.04.2023 20:32 15,3 C 14,4 C 10,6 C 66 % 1019,2 hPa 0,0 l/m 0 min 0 min 18 W/m 6,4 km/h (2 Bft) 100,00 %
30.04.2023 20:34 15,3 C 14,4 C 10,6 C 66 % 1019,3 hPa 0,0 l/m 0 min 0 min 16 W/m 3,2 km/h (1 Bft) 100,00 %
30.04.2023 20:36 15,3 C 14,4 C 10,6 C 66 % 1019,2 hPa 0,0 l/m 0 min 0 min 14 W/m 3,2 km/h (1 Bft) 97,87 %
30.04.2023 20:38 15,2 C 13,9 C 10,6 C 66 % 1019,2 hPa 0,0 l/m 0 min 0 min 13 W/m 3,2 km/h (1 Bft) 100,00 %
30.04.2023 20:40 15,2 C 13,9 C 10,6 C 66 % 1019,2 hPa 0,0 l/m 0 min 0 min 11 W/m 6,4 km/h (2 Bft) 97,87 %
30.04.2023 20:42 15,2 C 13,9 C 10,6 C 66 % 1019,2 hPa 0,0 l/m 0 min 0 min 10 W/m 6,4 km/h (2 Bft) 97,87 %
30.04.2023 20:44 15,1 C 13,9 C 10,6 C 67 % 1019,2 hPa 0,0 l/m 0 min 0 min 8 W/m 3,2 km/h (1 Bft) 100,00 %
30.04.2023 20:46 15,1 C 13,9 C 10,6 C 67 % 1019,2 hPa 0,0 l/m 0 min 0 min 7 W/m 6,4 km/h (2 Bft) 97,87 %
30.04.2023 20:48 15,0 C 13,9 C 10,0 C 67 % 1019,2 hPa 0,0 l/m 0 min 0 min 5 W/m 6,4 km/h (2 Bft) 97,87 %
30.04.2023 20:50 14,9 C 13,9 C 10,0 C 67 % 1019,2 hPa 0,0 l/m 0 min 0 min 4 W/m 6,4 km/h (2 Bft) 100,00 %
30.04.2023 20:52 14,9 C 13,9 C 10,0 C 67 % 1019,2 hPa 0,0 l/m 0 min 0 min 0 W/m 6,4 km/h (2 Bft) 97,83 %
30.04.2023 20:54 14,8 C 13,3 C 10,0 C 67 % 1019,1 hPa 0,0 l/m 0 min 0 min 0 W/m 6,4 km/h (2 Bft) 100,00 %
30.04.2023 20:56 14,8 C 13,3 C 10,0 C 67 % 1019,1 hPa 0,0 l/m 0 min 0 min 0 W/m 3,2 km/h (1 Bft) 97,87 %
30.04.2023 20:58 14,8 C 13,3 C 10,0 C 67 % 1019,2 hPa 0,0 l/m 0 min 0 min 0 W/m 3,2 km/h (1 Bft) 97,87 %
30.04.2023 21:00 14,7 C 13,3 C 10,0 C 67 % 1019,2 hPa 0,0 l/m 0 min 0 min 0 W/m 3,2 km/h (1 Bft) 95,74 %
30.04.2023 21:02 14,6 C 13,3 C 10,0 C 67 % 1019,2 hPa 0,0 l/m 0 min 0 min 0 W/m 3,2 km/h (1 Bft) 97,87 %
30.04.2023 21:04 14,6 C 13,3 C 10,0 C 68 % 1019,2 hPa 0,0 l/m 0 min 0 min 0 W/m 6,4 km/h (2 Bft) 97,92 %
30.04.2023 21:06 14,5 C 13,3 C 9,4 C 68 % 1019,2 hPa 0,0 l/m 0 min 0 min 0 W/m 6,4 km/h (2 Bft) 96,55 %
30.04.2023 21:08 14,5 C 13,3 C 9,4 C 68 % 1019,1 hPa 0,0 l/m 0 min 0 min 0 W/m 3,2 km/h (1 Bft) 97,14 %
30.04.2023 21:10 14,4 C 13,3 C 9,4 C 68 % 1019,2 hPa 0,0 l/m 0 min 0 min 0 W/m 3,2 km/h (1 Bft) 95,74 %
30.04.2023 21:12 14,4 C 13,3 C 9,4 C 68 % 1019,2 hPa 0,0 l/m 0 min 0 min 0 W/m 6,4 km/h (2 Bft) 95,74 %
30.04.2023 21:14 14,4 C 12,8 C 9,4 C 68 % 1019,2 hPa 0,0 l/m 0 min 0 min 0 W/m 3,2 km/h (1 Bft) 93,62 %
30.04.2023 21:16 14,3 C 12,8 C 9,4 C 68 % 1019,2 hPa 0,0 l/m 0 min 0 min 0 W/m 6,4 km/h (2 Bft) 93,62 %
30.04.2023 21:18 14,3 C 12,8 C 9,4 C 68 % 1019,2 hPa 0,0 l/m 0 min 0 min 0 W/m 3,2 km/h (1 Bft) 95,65 %
30.04.2023 21:20 14,3 C 12,8 C 9,4 C 69 % 1019,3 hPa 0,0 l/m 0 min 0 min 0 W/m 3,2 km/h (1 Bft) 95,74 %
30.04.2023 21:22 14,3 C 12,8 C 9,4 C 69 % 1019,3 hPa 0,0 l/m 0 min 0 min 0 W/m 3,2 km/h (1 Bft) 93,62 %
30.04.2023 21:24 14,3 C 12,8 C 9,4 C 69 % 1019,3 hPa 0,0 l/m 0 min 0 min 0 W/m 3,2 km/h (1 Bft) 93,62 %
30.04.2023 21:26 14,3 C 12,8 C 9,4 C 70 % 1019,3 hPa 0,0 l/m 0 min 0 min 0 W/m 6,4 km/h (2 Bft) 93,62 %
30.04.2023 21:28 14,3 C 12,8 C 9,4 C 70 % 1019,3 hPa 0,0 l/m 0 min 0 min 0 W/m 3,2 km/h (1 Bft) 93,62 %
30.04.2023 21:30 14,3 C 12,8 C 8,9 C 70 % 1019,3 hPa 0,0 l/m 0 min 0 min 0 W/m 3,2 km/h (1 Bft) 93,62 %
30.04.2023 21:32 14,3 C 12,8 C 8,9 C 70 % 1019,3 hPa 0,0 l/m 0 min 0 min 0 W/m 3,2 km/h (1 Bft) 93,48 %
30.04.2023 21:34 14,2 C 12,8 C 8,9 C 70 % 1019,4 hPa 0,0 l/m 0 min 0 min 0 W/m 3,2 km/h (1 Bft) 93,62 %
30.04.2023 21:36 14,1 C 12,8 C 8,9 C 70 % 1019,4 hPa 0,0 l/m 0 min 0 min 0 W/m 6,4 km/h (2 Bft) 93,62 %
30.04.2023 21:38 14,1 C 12,8 C 8,9 C 70 % 1019,4 hPa 0,0 l/m 0 min 0 min 0 W/m 6,4 km/h (2 Bft) 89,36 %
30.04.2023 21:40 14,0 C 12,8 C 8,9 C 70 % 1019,5 hPa 0,0 l/m 0 min 0 min 0 W/m 6,4 km/h (2 Bft) 93,62 %
30.04.2023 21:42 13,9 C 12,8 C 8,9 C 70 % 1019,4 hPa 0,0 l/m 0 min 0 min 0 W/m 3,2 km/h (1 Bft) 94,34 %
30.04.2023 21:44 13,9 C 12,8 C 8,9 C 70 % 1019,5 hPa 0,0 l/m 0 min 0 min 0 W/m 12,9 km/h (3 Bft) 95,74 %
30.04.2023 21:46 13,9 C 12,8 C 9,4 C 70 % 1019,4 hPa 0,0 l/m 0 min 0 min 0 W/m 6,4 km/h (2 Bft) 95,74 %
30.04.2023 21:48 13,8 C 12,8 C 8,9 C 70 % 1019,5 hPa 0,0 l/m 0 min 0 min 0 W/m 6,4 km/h (2 Bft) 95,74 %
30.04.2023 21:50 13,8 C 12,8 C 8,9 C 70 % 1019,4 hPa 0,0 l/m 0 min 0 min 0 W/m 3,2 km/h (1 Bft) 95,74 %
30.04.2023 21:52 13,8 C 12,8 C 9,4 C 70 % 1019,4 hPa 0,0 l/m 0 min 0 min 0 W/m 6,4 km/h (2 Bft) 95,74 %
30.04.2023 21:54 13,8 C 12,8 C 8,9 C 71 % 1019,4 hPa 0,0 l/m 0 min 0 min 0 W/m 3,2 km/h (1 Bft) 95,74 %
30.04.2023 21:56 13,8 C 12,8 C 8,9 C 71 % 1019,4 hPa 0,0 l/m 0 min 0 min 0 W/m 3,2 km/h (1 Bft) 95,65 %
30.04.2023 21:58 13,8 C 13,3 C 8,9 C 71 % 1019,4 hPa 0,0 l/m 0 min 0 min 0 W/m 6,4 km/h (2 Bft) 97,87 %
30.04.2023 22:00 13,8 C 13,3 C 8,9 C 71 % 1019,4 hPa 0,0 l/m 0 min 0 min 0 W/m 9,7 km/h (2 Bft) 100,00 %
30.04.2023 22:02 13,8 C 13,3 C 8,9 C 71 % 1019,4 hPa 0,0 l/m 0 min 0 min 0 W/m 6,4 km/h (2 Bft) 97,87 %
30.04.2023 22:04 13,7 C 13,3 C 8,9 C 70 % 1019,4 hPa 0,0 l/m 0 min 0 min 0 W/m 6,4 km/h (2 Bft) 97,56 %
30.04.2023 22:06 13,7 C 13,3 C 8,9 C 71 % 1019,4 hPa 0,0 l/m 0 min 0 min 0 W/m 9,7 km/h (2 Bft) 100,00 %
30.04.2023 22:08 13,7 C 13,3 C 8,9 C 70 % 1019,4 hPa 0,0 l/m 0 min 0 min 0 W/m 6,4 km/h (2 Bft) 97,22 %
30.04.2023 22:10 13,7 C 13,3 C 8,9 C 70 % 1019,4 hPa 0,0 l/m 0 min 0 min 0 W/m 6,4 km/h (2 Bft) 100,00 %
30.04.2023 22:12 13,7 C 13,3 C 8,9 C 71 % 1019,4 hPa 0,0 l/m 0 min 0 min 0 W/m 6,4 km/h (2 Bft) 95,65 %
30.04.2023 22:14 13,7 C 12,8 C 8,9 C 71 % 1019,4 hPa 0,0 l/m 0 min 0 min 0 W/m 9,7 km/h (2 Bft) 97,87 %
30.04.2023 22:16 13,7 C 12,8 C 8,9 C 71 % 1019,4 hPa 0,0 l/m 0 min 0 min 0 W/m 3,2 km/h (1 Bft) 97,87 %
30.04.2023 22:18 13,6 C 12,8 C 8,9 C 71 % 1019,4 hPa 0,0 l/m 0 min 0 min 0 W/m 6,4 km/h (2 Bft) 100,00 %
30.04.2023 22:20 13,6 C 12,8 C 8,9 C 71 % 1019,4 hPa 0,0 l/m 0 min 0 min 0 W/m 6,4 km/h (2 Bft) 98,04 %
30.04.2023 22:22 13,6 C 12,8 C 8,9 C 71 % 1019,4 hPa 0,0 l/m 0 min 0 min 0 W/m 6,4 km/h (2 Bft) 98,00 %
30.04.2023 22:24 13,6 C 12,8 C 8,9 C 71 % 1019,4 hPa 0,0 l/m 0 min 0 min 0 W/m 6,4 km/h (2 Bft) 100,00 %
30.04.2023 22:26 13,6 C 12,8 C 8,9 C 71 % 1019,3 hPa 0,0 l/m 0 min 0 min 0 W/m 3,2 km/h (1 Bft) 100,00 %
30.04.2023 22:28 13,6 C 12,8 C 8,9 C 71 % 1019,3 hPa 0,0 l/m 0 min 0 min 0 W/m 3,2 km/h (1 Bft) 97,87 %
30.04.2023 22:30 13,6 C 12,8 C 8,9 C 71 % 1019,3 hPa 0,0 l/m 0 min 0 min 0 W/m 3,2 km/h (1 Bft) 100,00 %
30.04.2023 22:32 13,6 C 12,8 C 8,9 C 71 % 1019,3 hPa 0,0 l/m 0 min 0 min 0 W/m 6,4 km/h (2 Bft) 100,00 %
30.04.2023 22:34 13,6 C 12,8 C 8,9 C 71 % 1019,3 hPa 0,0 l/m 0 min 0 min 0 W/m 3,2 km/h (1 Bft) 97,87 %
30.04.2023 22:36 13,6 C 12,8 C 8,9 C 71 % 1019,3 hPa 0,0 l/m 0 min 0 min 0 W/m 6,4 km/h (2 Bft) 97,87 %
30.04.2023 22:38 13,5 C 12,8 C 8,9 C 71 % 1019,2 hPa 0,0 l/m 0 min 0 min 0 W/m 6,4 km/h (2 Bft) 100,00 %
30.04.2023 22:40 13,5 C 12,8 C 8,9 C 71 % 1019,2 hPa 0,0 l/m 0 min 0 min 0 W/m 3,2 km/h (1 Bft) 95,65 %
30.04.2023 22:42 13,4 C 12,8 C 8,9 C 71 % 1019,2 hPa 0,0 l/m 0 min 0 min 0 W/m 3,2 km/h (1 Bft) 100,00 %
30.04.2023 22:44 13,4 C 12,8 C 8,9 C 71 % 1019,2 hPa 0,0 l/m 0 min 0 min 0 W/m 9,7 km/h (2 Bft) 97,87 %
30.04.2023 22:46 13,4 C 12,8 C 8,9 C 71 % 1019,2 hPa 0,0 l/m 0 min 0 min 0 W/m 3,2 km/h (1 Bft) 97,87 %
30.04.2023 22:48 13,4 C 12,8 C 8,9 C 72 % 1019,2 hPa 0,0 l/m 0 min 0 min 0 W/m 6,4 km/h (2 Bft) 100,00 %
30.04.2023 22:50 13,3 C 12,8 C 8,9 C 72 % 1019,2 hPa 0,0 l/m 0 min 0 min 0 W/m 6,4 km/h (2 Bft) 100,00 %
30.04.2023 22:52 13,3 C 12,8 C 8,9 C 71 % 1019,2 hPa 0,0 l/m 0 min 0 min 0 W/m 12,9 km/h (3 Bft) 97,87 %
30.04.2023 22:54 13,3 C 12,8 C 8,9 C 72 % 1019,2 hPa 0,0 l/m 0 min 0 min 0 W/m 3,2 km/h (1 Bft) 97,83 %
30.04.2023 22:56 13,3 C 12,8 C 8,9 C 72 % 1019,2 hPa 0,0 l/m 0 min 0 min 0 W/m 3,2 km/h (1 Bft) 97,87 %
30.04.2023 22:58 13,3 C 12,8 C 8,9 C 72 % 1019,2 hPa 0,0 l/m 0 min 0 min 0 W/m 3,2 km/h (1 Bft) 95,74 %
30.04.2023 23:00 13,3 C 12,8 C 8,9 C 72 % 1019,2 hPa 0,0 l/m 0 min 0 min 0 W/m 3,2 km/h (1 Bft) 97,87 %
30.04.2023 23:02 13,3 C 12,8 C 8,9 C 72 % 1019,2 hPa 0,0 l/m 0 min 0 min 0 W/m 6,4 km/h (2 Bft) 97,87 %
30.04.2023 23:04 13,3 C 12,8 C 8,9 C 72 % 1019,2 hPa 0,0 l/m 0 min 0 min 0 W/m 6,4 km/h (2 Bft) 95,83 %
30.04.2023 23:06 13,2 C 12,8 C 8,9 C 72 % 1019,2 hPa 0,0 l/m 0 min 0 min 0 W/m 3,2 km/h (1 Bft) 96,55 %
30.04.2023 23:08 13,2 C 12,8 C 8,9 C 72 % 1019,1 hPa 0,0 l/m 0 min 0 min 0 W/m 16,1 km/h (3 Bft) 100,00 %
30.04.2023 23:10 13,2 C 12,8 C 8,9 C 72 % 1019,1 hPa 0,0 l/m 0 min 0 min 0 W/m 6,4 km/h (2 Bft) 95,74 %
30.04.2023 23:12 13,2 C 12,8 C 8,9 C 72 % 1019,1 hPa 0,0 l/m 0 min 0 min 0 W/m 3,2 km/h (1 Bft) 97,87 %
30.04.2023 23:14 13,2 C 12,8 C 8,9 C 72 % 1019,1 hPa 0,0 l/m 0 min 0 min 0 W/m 3,2 km/h (1 Bft) 95,74 %
30.04.2023 23:16 13,1 C 12,8 C 8,3 C 73 % 1019,1 hPa 0,0 l/m 0 min 0 min 0 W/m 3,2 km/h (1 Bft) 95,74 %
30.04.2023 23:18 13,1 C 12,8 C 8,3 C 73 % 1019,1 hPa 0,0 l/m 0 min 0 min 0 W/m 3,2 km/h (1 Bft) 97,87 %
30.04.2023 23:20 13,1 C 12,8 C 8,3 C 73 % 1019,0 hPa 0,0 l/m 0 min 0 min 0 W/m 6,4 km/h (2 Bft) 97,83 %
30.04.2023 23:22 13,1 C 12,8 C 8,3 C 73 % 1019,0 hPa 0,0 l/m 0 min 0 min 0 W/m 6,4 km/h (2 Bft) 95,74 %
30.04.2023 23:24 13,1 C 12,2 C 8,3 C 73 % 1019,0 hPa 0,0 l/m 0 min 0 min 0 W/m 6,4 km/h (2 Bft) 97,87 %
30.04.2023 23:26 13,0 C 12,2 C 8,3 C 73 % 1018,9 hPa 0,0 l/m 0 min 0 min 0 W/m 6,4 km/h (2 Bft) 100,00 %
30.04.2023 23:28 13,0 C 12,2 C 8,3 C 73 % 1018,9 hPa 0,0 l/m 0 min 0 min 0 W/m 6,4 km/h (2 Bft) 97,87 %
30.04.2023 23:30 12,9 C 12,2 C 8,3 C 73 % 1018,9 hPa 0,0 l/m 0 min 0 min 0 W/m 3,2 km/h (1 Bft) 100,00 %
30.04.2023 23:32 12,9 C 12,2 C 8,3 C 73 % 1018,9 hPa 0,0 l/m 0 min 0 min 0 W/m 3,2 km/h (1 Bft) 97,87 %
30.04.2023 23:34 12,8 C 12,2 C 8,3 C 74 % 1019,0 hPa 0,0 l/m 0 min 0 min 0 W/m 3,2 km/h (1 Bft) 96,23 %
30.04.2023 23:36 12,8 C 12,2 C 7,8 C 74 % 1018,9 hPa 0,0 l/m 0 min 0 min 0 W/m 6,4 km/h (2 Bft) 97,87 %
30.04.2023 23:38 12,8 C 12,2 C 7,8 C 74 % 1018,9 hPa 0,0 l/m 0 min 0 min 0 W/m 3,2 km/h (1 Bft) 97,87 %
30.04.2023 23:40 12,7 C 12,2 C 7,8 C 74 % 1018,9 hPa 0,0 l/m 0 min 0 min 0 W/m 3,2 km/h (1 Bft) 93,62 %
30.04.2023 23:42 12,7 C 11,7 C 7,8 C 74 % 1018,9 hPa 0,0 l/m 0 min 0 min 0 W/m 3,2 km/h (1 Bft) 97,87 %
30.04.2023 23:44 12,7 C 11,7 C 7,8 C 74 % 1018,9 hPa 0,0 l/m 0 min 0 min 0 W/m 3,2 km/h (1 Bft) 97,83 %
30.04.2023 23:46 12,6 C 11,7 C 7,8 C 74 % 1018,9 hPa 0,0 l/m 0 min 0 min 0 W/m 3,2 km/h (1 Bft) 97,87 %
30.04.2023 23:48 12,6 C 11,7 C 7,8 C 74 % 1018,8 hPa 0,0 l/m 0 min 0 min 0 W/m 3,2 km/h (1 Bft) 97,87 %
30.04.2023 23:50 12,6 C 11,7 C 7,8 C 74 % 1018,8 hPa 0,0 l/m 0 min 0 min 0 W/m 3,2 km/h (1 Bft) 95,74 %
30.04.2023 23:52 12,5 C 11,7 C 7,8 C 75 % 1018,8 hPa 0,0 l/m 0 min 0 min 0 W/m 6,4 km/h (2 Bft) 97,87 %
30.04.2023 23:54 12,4 C 11,7 C 7,8 C 75 % 1018,8 hPa 0,0 l/m 0 min 0 min 0 W/m 3,2 km/h (1 Bft) 97,92 %
30.04.2023 23:56 12,4 C 11,7 C 7,8 C 75 % 1018,8 hPa 0,0 l/m 0 min 0 min 0 W/m 6,4 km/h (2 Bft) 97,87 %
30.04.2023 23:58 12,3 C 11,7 C 7,8 C 75 % 1018,7 hPa 0,0 l/m 0 min 0 min 0 W/m 3,2 km/h (1 Bft) 97,83 %
_ Min-Zeit 06:54 06:08 05:46 16:58 23:58 - - - - 00:04 10:32
Minimum _ 6,0 C 5,0 C 2,2 C 52 % 1018,7 hPa - - - - 0,0 km/h (0 Bft) 53,33 %
_ Max-Zeit 18:02 13:50 12:44 07:56 07:52 00:00 18:08 00:00 13:50 17:24 01:04
Maximum _ 20,1 C 29,4 C 21,1 C 96 % 1023,9 hPa 0,0 l/m 4 min 0 min 1026 W/m 29,0 km/h
N-NO (5 Bft)
100,00 %
Durchschnitt _ 13,4 C 15,4 C 9,4 C 74 % 1021,9 hPa #0,0 l/m #9:58 h #0 min. 458 W/m 7,7 km/h (2 Bft) 97,23 %
© 2023 W. Hausmann